TPA4091 KMIA-SUMU
Flight info
| Callsign | TPA4091 |
|---|---|
| Flight time | 8h 35m |
| Altitude | 35000 |
| Route | NNOCE2 URSUS UP406 BILSI UL795 LENAX UL417 NEFTU UP525 RONLU/N0471F370 UP525 ARNUB/N0467F390 UP525 RCO UL417 LOKOX UM784 SIS UZ120 GEMSU UP526 DUR P526 MONSA |
| Aircraft | A332/H-SDE3GHIJ2J3J5M1RVWXY/LB2D1 |
Departure
| Time | 2026-05-07 05:32 |
|---|---|
| Airport | Miami International Airport (KMIA) |
Arrival
| Time | 2026-05-07 14:08 |
|---|---|
| Airport | Carrasco General Cesáreo L. Berisso International Airport (SUMU) |
| Time | Latitude | Longitude | Altitude | Speed | Heading |
|---|---|---|---|---|---|
| 2026-05-07 04:49 | 25.79083 | -80.30478 | 19 ft | 0 kts | 48° |
| 2026-05-07 05:19 | 25.79083 | -80.30479 | 28 ft | 1 kts | 48° |
| 2026-05-07 05:19 | 25.79061 | -80.30506 | 23 ft | 4 kts | 60° |
| 2026-05-07 05:20 | 25.79056 | -80.30516 | 20 ft | 0 kts | 61° |
| 2026-05-07 05:22 | 25.79056 | -80.30515 | 20 ft | 0 kts | 61° |
| 2026-05-07 05:22 | 25.79059 | -80.30511 | 23 ft | 1 kts | 61° |
| 2026-05-07 05:22 | 25.79059 | -80.30510 | 23 ft | 0 kts | 61° |
| 2026-05-07 05:26 | 25.79062 | -80.30507 | 18 ft | 1 kts | 46° |
| 2026-05-07 05:26 | 25.79068 | -80.30507 | 20 ft | 1 kts | 14° |
| 2026-05-07 05:26 | 25.79075 | -80.30513 | 18 ft | 2 kts | 323° |
| 2026-05-07 05:26 | 25.79064 | -80.30547 | 18 ft | 8 kts | 217° |
| 2026-05-07 05:27 | 25.79011 | -80.30562 | 21 ft | 9 kts | 182° |
| 2026-05-07 05:27 | 25.78933 | -80.30561 | 18 ft | 13 kts | 178° |
| 2026-05-07 05:27 | 25.78861 | -80.30559 | 19 ft | 7 kts | 182° |
| 2026-05-07 05:27 | 25.78844 | -80.30586 | 18 ft | 8 kts | 252° |
| 2026-05-07 05:28 | 25.78836 | -80.30676 | 18 ft | 14 kts | 267° |
| 2026-05-07 05:28 | 25.78832 | -80.30786 | 18 ft | 14 kts | 268° |
| 2026-05-07 05:28 | 25.78828 | -80.30895 | 18 ft | 14 kts | 267° |
| 2026-05-07 05:28 | 25.78823 | -80.31004 | 18 ft | 14 kts | 267° |
| 2026-05-07 05:29 | 25.78818 | -80.31112 | 18 ft | 14 kts | 266° |
| 2026-05-07 05:29 | 25.78813 | -80.31220 | 18 ft | 14 kts | 268° |
| 2026-05-07 05:29 | 25.78810 | -80.31325 | 18 ft | 14 kts | 268° |
| 2026-05-07 05:29 | 25.78805 | -80.31430 | 18 ft | 14 kts | 265° |
| 2026-05-07 05:30 | 25.78761 | -80.31479 | 18 ft | 8 kts | 186° |
| 2026-05-07 05:30 | 25.78702 | -80.31479 | 18 ft | 9 kts | 179° |
| 2026-05-07 05:30 | 25.78642 | -80.31476 | 19 ft | 8 kts | 176° |
| 2026-05-07 05:30 | 25.78615 | -80.31448 | 18 ft | 2 kts | 99° |
| 2026-05-07 05:31 | 25.78616 | -80.31430 | 18 ft | 2 kts | 87° |
| 2026-05-07 05:31 | 25.78617 | -80.31379 | 18 ft | 18 kts | 89° |
| 2026-05-07 05:31 | 25.78630 | -80.31021 | 19 ft | 76 kts | 86° |
| 2026-05-07 05:31 | 25.78665 | -80.30215 | 19 ft | 131 kts | 88° |
| 2026-05-07 05:32 | 25.78714 | -80.29011 | 23 ft | 180 kts | 88° |
| 2026-05-07 05:32 | 25.78764 | -80.27524 | 460 ft | 197 kts | 89° |
| 2026-05-07 05:32 | 25.78751 | -80.26034 | 1327 ft | 194 kts | 99° |
| 2026-05-07 05:32 | 25.78414 | -80.24575 | 1874 ft | 201 kts | 107° |
| 2026-05-07 05:33 | 25.78009 | -80.22990 | 2090 ft | 225 kts | 106° |
| 2026-05-07 05:33 | 25.77589 | -80.21239 | 2377 ft | 244 kts | 105° |
| 2026-05-07 05:33 | 25.77161 | -80.19376 | 2839 ft | 252 kts | 105° |
| 2026-05-07 05:33 | 25.76548 | -80.17528 | 3366 ft | 258 kts | 115° |
| 2026-05-07 05:34 | 25.75708 | -80.15748 | 3896 ft | 262 kts | 117° |
| 2026-05-07 05:34 | 25.74811 | -80.13957 | 4446 ft | 268 kts | 118° |
| 2026-05-07 05:34 | 25.73746 | -80.12235 | 4968 ft | 276 kts | 132° |
| 2026-05-07 05:34 | 25.72135 | -80.11062 | 5566 ft | 282 kts | 160° |
| 2026-05-07 05:35 | 25.70223 | -80.10602 | 6276 ft | 281 kts | 170° |
| 2026-05-07 05:35 | 25.68304 | -80.10329 | 6918 ft | 282 kts | 171° |
| 2026-05-07 05:35 | 25.66350 | -80.10073 | 7488 ft | 284 kts | 171° |
| 2026-05-07 05:35 | 25.64397 | -80.09683 | 8057 ft | 286 kts | 163° |
| 2026-05-07 05:36 | 25.62474 | -80.09068 | 8642 ft | 288 kts | 160° |
| 2026-05-07 05:36 | 25.60641 | -80.08430 | 9221 ft | 290 kts | 160° |
| 2026-05-07 05:36 | 25.58704 | -80.07747 | 9804 ft | 293 kts | 160° |
| 2026-05-07 05:36 | 25.56743 | -80.07056 | 10252 ft | 301 kts | 159° |
| 2026-05-07 05:37 | 25.54695 | -80.06333 | 10470 ft | 317 kts | 160° |
| 2026-05-07 05:37 | 25.52543 | -80.05576 | 10687 ft | 332 kts | 160° |
| 2026-05-07 05:37 | 25.50291 | -80.04787 | 10886 ft | 346 kts | 160° |
| 2026-05-07 05:37 | 25.47946 | -80.03967 | 11103 ft | 359 kts | 160° |
| 2026-05-07 05:38 | 25.45534 | -80.03124 | 11452 ft | 367 kts | 160° |
| 2026-05-07 05:38 | 25.43082 | -80.02269 | 11900 ft | 372 kts | 160° |
| 2026-05-07 05:38 | 25.40604 | -80.01405 | 12366 ft | 376 kts | 160° |
| 2026-05-07 05:38 | 25.38094 | -80.00529 | 12850 ft | 379 kts | 160° |
| 2026-05-07 05:39 | 25.35597 | -79.99658 | 13302 ft | 383 kts | 160° |
| 2026-05-07 05:39 | 25.33042 | -79.98768 | 13801 ft | 387 kts | 160° |
| 2026-05-07 05:39 | 25.30462 | -79.97869 | 14222 ft | 390 kts | 160° |
| 2026-05-07 05:39 | 25.27867 | -79.96937 | 14671 ft | 392 kts | 157° |
| 2026-05-07 05:40 | 25.25408 | -79.95640 | 15108 ft | 393 kts | 148° |
| 2026-05-07 05:40 | 25.23077 | -79.94051 | 15515 ft | 395 kts | 145° |
| 2026-05-07 05:40 | 25.20754 | -79.92394 | 15924 ft | 399 kts | 145° |
| 2026-05-07 05:40 | 25.18418 | -79.90722 | 16337 ft | 402 kts | 146° |
| 2026-05-07 05:41 | 25.16057 | -79.89038 | 16735 ft | 406 kts | 146° |
| 2026-05-07 05:41 | 25.13671 | -79.87341 | 17123 ft | 409 kts | 146° |
| 2026-05-07 05:41 | 25.11268 | -79.85636 | 17521 ft | 412 kts | 146° |
| 2026-05-07 05:41 | 25.08844 | -79.83919 | 17905 ft | 416 kts | 147° |
| 2026-05-07 05:42 | 25.06403 | -79.82191 | 18296 ft | 419 kts | 147° |
| 2026-05-07 05:42 | 25.03942 | -79.80451 | 18614 ft | 422 kts | 147° |
| 2026-05-07 05:42 | 25.01464 | -79.78699 | 18938 ft | 425 kts | 147° |
| 2026-05-07 05:42 | 24.98965 | -79.76933 | 19226 ft | 429 kts | 147° |
| 2026-05-07 05:43 | 24.96440 | -79.75150 | 19567 ft | 431 kts | 147° |
| 2026-05-07 05:43 | 24.93911 | -79.73366 | 19898 ft | 433 kts | 147° |
| 2026-05-07 05:43 | 24.91367 | -79.71570 | 20212 ft | 436 kts | 147° |
| 2026-05-07 05:43 | 24.88806 | -79.69765 | 20516 ft | 438 kts | 147° |
| 2026-05-07 05:44 | 24.86264 | -79.67972 | 20834 ft | 441 kts | 147° |
| 2026-05-07 05:44 | 24.83643 | -79.66123 | 21152 ft | 443 kts | 147° |
| 2026-05-07 05:44 | 24.81074 | -79.64313 | 21461 ft | 446 kts | 147° |
| 2026-05-07 05:44 | 24.78454 | -79.62467 | 21762 ft | 448 kts | 147° |
| 2026-05-07 05:45 | 24.75819 | -79.60613 | 22073 ft | 451 kts | 148° |
| 2026-05-07 05:45 | 24.73169 | -79.58748 | 22366 ft | 453 kts | 148° |
| 2026-05-07 05:45 | 24.70504 | -79.56874 | 22660 ft | 456 kts | 148° |
| 2026-05-07 05:45 | 24.67824 | -79.54991 | 22960 ft | 458 kts | 148° |
| 2026-05-07 05:46 | 24.65130 | -79.53098 | 23244 ft | 461 kts | 148° |
| 2026-05-07 05:46 | 24.62422 | -79.51196 | 23571 ft | 462 kts | 148° |
| 2026-05-07 05:46 | 24.59708 | -79.49292 | 23840 ft | 464 kts | 148° |
| 2026-05-07 05:46 | 24.56980 | -79.47378 | 24079 ft | 467 kts | 148° |
| 2026-05-07 05:47 | 24.54239 | -79.45456 | 24328 ft | 469 kts | 148° |
| 2026-05-07 05:47 | 24.51480 | -79.43523 | 24579 ft | 471 kts | 148° |
| 2026-05-07 05:47 | 24.48708 | -79.41582 | 24829 ft | 473 kts | 148° |
| 2026-05-07 05:47 | 24.45924 | -79.39633 | 25069 ft | 476 kts | 148° |
| 2026-05-07 05:48 | 24.43128 | -79.37678 | 25333 ft | 478 kts | 148° |
| 2026-05-07 05:48 | 24.40319 | -79.35713 | 25600 ft | 479 kts | 148° |
| 2026-05-07 05:48 | 24.37500 | -79.33744 | 25860 ft | 481 kts | 148° |
| 2026-05-07 05:48 | 24.34709 | -79.31794 | 26114 ft | 483 kts | 148° |
| 2026-05-07 05:49 | 24.31869 | -79.29811 | 26374 ft | 485 kts | 148° |
| 2026-05-07 05:49 | 24.29025 | -79.27801 | 26637 ft | 487 kts | 147° |
| 2026-05-07 05:49 | 24.26183 | -79.25760 | 26893 ft | 489 kts | 147° |
| 2026-05-07 05:49 | 24.23333 | -79.23711 | 27148 ft | 491 kts | 147° |
| 2026-05-07 05:50 | 24.20473 | -79.21654 | 27395 ft | 493 kts | 147° |
| 2026-05-07 05:50 | 24.17604 | -79.19595 | 27650 ft | 494 kts | 147° |
| 2026-05-07 05:50 | 24.14721 | -79.17526 | 27894 ft | 496 kts | 147° |
| 2026-05-07 05:50 | 24.11825 | -79.15450 | 28152 ft | 498 kts | 147° |
| 2026-05-07 05:51 | 24.08915 | -79.13366 | 28405 ft | 500 kts | 147° |
| 2026-05-07 05:51 | 24.05988 | -79.11270 | 28642 ft | 502 kts | 147° |
| 2026-05-07 05:51 | 24.03044 | -79.09191 | 28881 ft | 504 kts | 150° |
| 2026-05-07 05:51 | 23.99932 | -79.07448 | 29116 ft | 504 kts | 160° |
| 2026-05-07 05:52 | 23.96637 | -79.06324 | 29341 ft | 503 kts | 168° |
| 2026-05-07 05:52 | 23.93217 | -79.05500 | 29609 ft | 503 kts | 171° |
| 2026-05-07 05:52 | 23.89769 | -79.04794 | 29843 ft | 505 kts | 172° |
| 2026-05-07 05:52 | 23.86302 | -79.04140 | 30056 ft | 506 kts | 172° |
| 2026-05-07 05:53 | 23.82818 | -79.03496 | 30262 ft | 508 kts | 172° |
| 2026-05-07 05:53 | 23.79326 | -79.02845 | 30449 ft | 510 kts | 172° |
| 2026-05-07 05:53 | 23.75824 | -79.02179 | 30635 ft | 511 kts | 172° |
| 2026-05-07 05:53 | 23.72310 | -79.01499 | 30839 ft | 513 kts | 172° |
| 2026-05-07 05:54 | 23.68795 | -79.00809 | 31039 ft | 513 kts | 172° |
| 2026-05-07 05:54 | 23.65284 | -79.00116 | 31325 ft | 512 kts | 171° |
| 2026-05-07 05:54 | 23.61775 | -78.99422 | 31586 ft | 512 kts | 171° |
| 2026-05-07 05:54 | 23.58271 | -78.98728 | 31848 ft | 512 kts | 172° |
| 2026-05-07 05:55 | 23.54770 | -78.98036 | 32095 ft | 511 kts | 172° |
| 2026-05-07 05:55 | 23.51262 | -78.97343 | 32351 ft | 511 kts | 172° |
| 2026-05-07 05:55 | 23.47763 | -78.96653 | 32607 ft | 511 kts | 172° |
| 2026-05-07 05:55 | 23.44255 | -78.95962 | 32865 ft | 511 kts | 172° |
| 2026-05-07 05:56 | 23.40761 | -78.95274 | 33111 ft | 510 kts | 172° |
| 2026-05-07 05:56 | 23.37269 | -78.94588 | 33351 ft | 510 kts | 172° |
| 2026-05-07 05:56 | 23.33823 | -78.93910 | 33573 ft | 510 kts | 171° |
| 2026-05-07 05:56 | 23.30330 | -78.93224 | 33766 ft | 510 kts | 171° |
| 2026-05-07 05:57 | 23.26830 | -78.92537 | 34013 ft | 510 kts | 171° |
| 2026-05-07 05:57 | 23.23351 | -78.91775 | 34215 ft | 511 kts | 166° |
| 2026-05-07 05:57 | 23.19979 | -78.90542 | 34423 ft | 512 kts | 157° |
| 2026-05-07 05:57 | 23.16835 | -78.88739 | 34638 ft | 511 kts | 147° |
| 2026-05-07 05:58 | 23.13899 | -78.86562 | 34840 ft | 511 kts | 144° |
| 2026-05-07 05:58 | 23.11040 | -78.84274 | 35015 ft | 511 kts | 143° |
| 2026-05-07 05:58 | 23.08216 | -78.81923 | 35060 ft | 510 kts | 142° |
| 2026-05-07 05:59 | 23.02616 | -78.77188 | 35054 ft | 509 kts | 142° |
| 2026-05-07 05:59 | 22.97010 | -78.72486 | 35062 ft | 509 kts | 142° |
| 2026-05-07 06:00 | 22.91383 | -78.67815 | 35069 ft | 509 kts | 142° |
| 2026-05-07 06:00 | 22.85746 | -78.63158 | 35064 ft | 510 kts | 142° |
| 2026-05-07 06:01 | 22.80137 | -78.58529 | 35063 ft | 510 kts | 142° |
| 2026-05-07 06:01 | 22.74501 | -78.53866 | 35062 ft | 510 kts | 142° |
| 2026-05-07 06:02 | 22.68879 | -78.49183 | 35056 ft | 509 kts | 142° |
| 2026-05-07 06:02 | 22.63259 | -78.44501 | 35062 ft | 509 kts | 142° |
| 2026-05-07 06:03 | 22.57642 | -78.39831 | 35061 ft | 509 kts | 142° |
| 2026-05-07 06:03 | 22.52024 | -78.35168 | 35062 ft | 509 kts | 142° |
| 2026-05-07 06:04 | 22.46416 | -78.30498 | 35059 ft | 509 kts | 142° |
| 2026-05-07 06:04 | 22.40804 | -78.25819 | 35058 ft | 509 kts | 142° |
| 2026-05-07 06:05 | 22.35197 | -78.21147 | 35060 ft | 509 kts | 142° |
| 2026-05-07 06:05 | 22.29588 | -78.16482 | 35059 ft | 509 kts | 141° |
| 2026-05-07 06:06 | 22.23977 | -78.11820 | 35057 ft | 508 kts | 141° |
| 2026-05-07 06:06 | 22.18399 | -78.07191 | 35058 ft | 508 kts | 141° |
| 2026-05-07 06:07 | 22.12792 | -78.02542 | 35059 ft | 508 kts | 141° |
| 2026-05-07 06:07 | 22.07197 | -77.97909 | 35059 ft | 508 kts | 142° |
| 2026-05-07 06:08 | 22.02498 | -77.94020 | 35061 ft | 509 kts | 141° |
| 2026-05-07 06:08 | 21.96878 | -77.89375 | 35058 ft | 509 kts | 141° |
| 2026-05-07 06:09 | 21.91122 | -77.84904 | 35058 ft | 510 kts | 150° |
| 2026-05-07 06:09 | 21.84588 | -77.82065 | 35057 ft | 509 kts | 163° |
| 2026-05-07 06:10 | 21.77774 | -77.79987 | 35059 ft | 510 kts | 166° |
| 2026-05-07 06:10 | 21.70923 | -77.78056 | 35057 ft | 506 kts | 166° |
| 2026-05-07 06:11 | 21.64150 | -77.76134 | 35060 ft | 504 kts | 165° |
| 2026-05-07 06:11 | 21.57386 | -77.74186 | 35057 ft | 504 kts | 165° |
| 2026-05-07 06:12 | 21.50586 | -77.72214 | 35056 ft | 504 kts | 165° |
| 2026-05-07 06:12 | 21.43833 | -77.70257 | 35056 ft | 504 kts | 165° |
| 2026-05-07 06:13 | 21.37069 | -77.68299 | 35056 ft | 504 kts | 165° |
| 2026-05-07 06:13 | 21.30298 | -77.66342 | 35052 ft | 504 kts | 165° |
| 2026-05-07 06:14 | 21.23539 | -77.64391 | 35054 ft | 503 kts | 165° |
| 2026-05-07 06:14 | 21.16761 | -77.62436 | 35053 ft | 503 kts | 165° |
| 2026-05-07 06:15 | 21.10001 | -77.60488 | 35053 ft | 503 kts | 165° |
| 2026-05-07 06:15 | 21.03234 | -77.58540 | 35053 ft | 503 kts | 165° |
| 2026-05-07 06:16 | 20.96508 | -77.56606 | 35053 ft | 504 kts | 165° |
| 2026-05-07 06:16 | 20.89745 | -77.54661 | 35048 ft | 504 kts | 165° |
| 2026-05-07 06:17 | 20.82946 | -77.52708 | 35048 ft | 504 kts | 165° |
| 2026-05-07 06:17 | 20.76204 | -77.50773 | 35042 ft | 504 kts | 165° |
| 2026-05-07 06:18 | 20.69404 | -77.48824 | 35042 ft | 504 kts | 165° |
| 2026-05-07 06:18 | 20.62662 | -77.46893 | 35042 ft | 504 kts | 165° |
| 2026-05-07 06:19 | 20.55836 | -77.45124 | 35040 ft | 503 kts | 173° |
| 2026-05-07 06:19 | 20.48847 | -77.44814 | 35037 ft | 502 kts | 181° |
| 2026-05-07 06:20 | 20.41884 | -77.44953 | 35038 ft | 502 kts | 182° |
| 2026-05-07 06:20 | 20.34867 | -77.45178 | 35037 ft | 503 kts | 182° |
| 2026-05-07 06:21 | 20.27882 | -77.45385 | 35039 ft | 502 kts | 182° |
| 2026-05-07 06:21 | 20.20881 | -77.45571 | 35040 ft | 502 kts | 182° |
| 2026-05-07 06:22 | 20.13901 | -77.45748 | 35041 ft | 502 kts | 182° |
| 2026-05-07 06:22 | 20.03445 | -77.46012 | 35040 ft | 502 kts | 182° |
| 2026-05-07 06:23 | 19.96447 | -77.46189 | 35040 ft | 502 kts | 182° |
| 2026-05-07 06:23 | 19.89446 | -77.46367 | 35042 ft | 502 kts | 182° |
| 2026-05-07 06:24 | 19.82500 | -77.46543 | 35034 ft | 502 kts | 182° |
| 2026-05-07 06:24 | 19.75519 | -77.46720 | 35035 ft | 502 kts | 182° |
| 2026-05-07 06:25 | 19.68520 | -77.46897 | 35032 ft | 502 kts | 182° |
| 2026-05-07 06:25 | 19.61571 | -77.47073 | 35032 ft | 501 kts | 182° |
| 2026-05-07 06:26 | 19.54623 | -77.47249 | 35032 ft | 500 kts | 182° |
| 2026-05-07 06:26 | 19.47676 | -77.46792 | 35028 ft | 500 kts | 167° |
| 2026-05-07 06:27 | 19.40946 | -77.44956 | 35029 ft | 500 kts | 163° |
| 2026-05-07 06:27 | 19.34280 | -77.42852 | 35027 ft | 500 kts | 162° |
| 2026-05-07 06:28 | 19.27621 | -77.40712 | 35026 ft | 499 kts | 162° |
| 2026-05-07 06:28 | 19.20966 | -77.38602 | 35023 ft | 499 kts | 162° |
| 2026-05-07 06:29 | 19.14307 | -77.36512 | 35024 ft | 499 kts | 162° |
| 2026-05-07 06:29 | 19.07678 | -77.34439 | 35021 ft | 499 kts | 162° |
| 2026-05-07 06:30 | 19.01012 | -77.32355 | 35016 ft | 499 kts | 162° |
| 2026-05-07 06:30 | 18.94354 | -77.30275 | 35018 ft | 498 kts | 162° |
| 2026-05-07 06:31 | 18.87701 | -77.28198 | 35016 ft | 498 kts | 162° |
| 2026-05-07 06:31 | 18.81054 | -77.26124 | 35015 ft | 498 kts | 162° |
| 2026-05-07 06:32 | 18.74404 | -77.24051 | 35015 ft | 498 kts | 162° |
| 2026-05-07 06:32 | 18.67782 | -77.21989 | 35015 ft | 499 kts | 162° |
| 2026-05-07 06:33 | 18.61117 | -77.19915 | 35017 ft | 499 kts | 162° |
| 2026-05-07 06:33 | 18.54458 | -77.17844 | 35018 ft | 499 kts | 162° |
| 2026-05-07 06:34 | 18.47797 | -77.15774 | 35026 ft | 499 kts | 162° |
| 2026-05-07 06:34 | 18.41141 | -77.13708 | 35027 ft | 499 kts | 162° |
| 2026-05-07 06:35 | 18.34477 | -77.11641 | 35032 ft | 499 kts | 162° |
| 2026-05-07 06:35 | 18.27811 | -77.09575 | 35033 ft | 499 kts | 162° |
| 2026-05-07 06:36 | 18.21175 | -77.07520 | 35018 ft | 499 kts | 162° |
| 2026-05-07 06:36 | 18.14495 | -77.05453 | 35019 ft | 498 kts | 162° |
| 2026-05-07 06:37 | 18.07868 | -77.03404 | 35013 ft | 499 kts | 162° |
| 2026-05-07 06:37 | 18.01186 | -77.01339 | 35012 ft | 499 kts | 162° |
| 2026-05-07 06:38 | 17.94550 | -76.99291 | 35001 ft | 499 kts | 162° |
| 2026-05-07 06:38 | 17.87889 | -76.97236 | 35000 ft | 498 kts | 162° |
| 2026-05-07 06:39 | 17.81259 | -76.95192 | 35001 ft | 498 kts | 162° |
| 2026-05-07 06:39 | 17.74590 | -76.93139 | 34999 ft | 498 kts | 162° |
| 2026-05-07 06:40 | 17.67934 | -76.91090 | 34992 ft | 498 kts | 162° |
| 2026-05-07 06:40 | 17.61313 | -76.89054 | 34993 ft | 498 kts | 162° |
| 2026-05-07 06:41 | 17.54628 | -76.87001 | 34993 ft | 498 kts | 162° |
| 2026-05-07 06:41 | 17.47986 | -76.84962 | 34993 ft | 499 kts | 162° |
| 2026-05-07 06:42 | 17.41339 | -76.82923 | 34993 ft | 499 kts | 162° |
| 2026-05-07 06:42 | 17.34673 | -76.80880 | 34993 ft | 499 kts | 162° |
| 2026-05-07 06:43 | 17.27992 | -76.78833 | 34996 ft | 499 kts | 162° |
| 2026-05-07 06:43 | 17.21329 | -76.76794 | 34995 ft | 498 kts | 162° |
| 2026-05-07 06:44 | 17.14673 | -76.74759 | 35041 ft | 497 kts | 162° |
| 2026-05-07 06:44 | 17.07991 | -76.72716 | 35201 ft | 503 kts | 162° |
| 2026-05-07 06:45 | 17.04623 | -76.71687 | 35344 ft | 503 kts | 162° |
| 2026-05-07 06:45 | 17.01266 | -76.70662 | 35533 ft | 503 kts | 162° |
| 2026-05-07 06:45 | 16.97954 | -76.69652 | 35723 ft | 503 kts | 162° |
| 2026-05-07 06:45 | 16.94598 | -76.68628 | 35928 ft | 502 kts | 162° |
| 2026-05-07 06:46 | 16.91257 | -76.67610 | 36185 ft | 499 kts | 162° |
| 2026-05-07 06:46 | 16.87922 | -76.66593 | 36372 ft | 499 kts | 162° |
| 2026-05-07 06:46 | 16.84593 | -76.65579 | 36543 ft | 498 kts | 162° |
| 2026-05-07 06:46 | 16.81264 | -76.64564 | 36698 ft | 498 kts | 162° |
| 2026-05-07 06:47 | 16.77938 | -76.63552 | 36874 ft | 498 kts | 163° |
| 2026-05-07 06:47 | 16.74613 | -76.62539 | 36982 ft | 498 kts | 163° |
| 2026-05-07 06:47 | 16.67992 | -76.60525 | 36995 ft | 494 kts | 163° |
| 2026-05-07 06:48 | 16.61397 | -76.58520 | 36996 ft | 493 kts | 163° |
| 2026-05-07 06:48 | 16.54837 | -76.56526 | 36995 ft | 493 kts | 163° |
| 2026-05-07 06:49 | 16.48258 | -76.54528 | 36993 ft | 492 kts | 163° |
| 2026-05-07 06:49 | 16.41675 | -76.52530 | 36993 ft | 492 kts | 163° |
| 2026-05-07 06:50 | 16.35103 | -76.50537 | 36990 ft | 492 kts | 163° |
| 2026-05-07 06:50 | 16.28517 | -76.48541 | 36991 ft | 494 kts | 163° |
| 2026-05-07 06:51 | 16.21919 | -76.46543 | 36990 ft | 494 kts | 163° |
| 2026-05-07 06:51 | 16.15328 | -76.44549 | 36985 ft | 493 kts | 163° |
| 2026-05-07 06:52 | 16.08733 | -76.42555 | 36987 ft | 493 kts | 163° |
| 2026-05-07 06:52 | 16.02147 | -76.40564 | 36985 ft | 493 kts | 163° |
| 2026-05-07 06:53 | 15.95559 | -76.38575 | 36985 ft | 493 kts | 163° |
| 2026-05-07 06:53 | 15.89015 | -76.36600 | 36981 ft | 493 kts | 163° |
| 2026-05-07 06:54 | 15.82440 | -76.34617 | 36982 ft | 491 kts | 162° |
| 2026-05-07 06:54 | 15.75867 | -76.32636 | 36982 ft | 492 kts | 163° |
| 2026-05-07 06:55 | 15.69298 | -76.30658 | 36981 ft | 491 kts | 162° |
| 2026-05-07 06:55 | 15.63834 | -76.29013 | 36983 ft | 492 kts | 163° |
| 2026-05-07 06:56 | 15.57265 | -76.27037 | 36979 ft | 492 kts | 163° |
| 2026-05-07 06:56 | 15.50698 | -76.25063 | 36981 ft | 491 kts | 163° |
| 2026-05-07 06:57 | 15.44154 | -76.23098 | 36973 ft | 490 kts | 162° |
| 2026-05-07 06:57 | 15.37605 | -76.21132 | 36975 ft | 490 kts | 163° |
| 2026-05-07 06:58 | 15.31057 | -76.19167 | 36972 ft | 490 kts | 163° |
| 2026-05-07 06:58 | 15.24724 | -76.17269 | 36972 ft | 490 kts | 163° |
| 2026-05-07 06:59 | 15.18217 | -76.15319 | 36971 ft | 490 kts | 162° |
| 2026-05-07 06:59 | 15.11683 | -76.13363 | 36967 ft | 488 kts | 162° |
| 2026-05-07 07:00 | 15.05148 | -76.11407 | 36971 ft | 489 kts | 163° |
| 2026-05-07 07:00 | 14.98605 | -76.09444 | 36967 ft | 489 kts | 162° |
| 2026-05-07 07:01 | 14.92076 | -76.07442 | 36964 ft | 490 kts | 162° |
| 2026-05-07 07:01 | 14.85596 | -76.05440 | 36964 ft | 489 kts | 162° |
| 2026-05-07 07:02 | 14.79084 | -76.03433 | 36965 ft | 487 kts | 162° |
| 2026-05-07 07:02 | 14.72601 | -76.01440 | 36964 ft | 485 kts | 162° |
| 2026-05-07 07:03 | 14.66120 | -75.99450 | 36963 ft | 486 kts | 162° |
| 2026-05-07 07:03 | 14.59641 | -75.97462 | 36962 ft | 485 kts | 162° |
| 2026-05-07 07:04 | 14.53156 | -75.95473 | 36961 ft | 487 kts | 162° |
| 2026-05-07 07:04 | 14.46674 | -75.93487 | 36956 ft | 485 kts | 161° |
| 2026-05-07 07:05 | 14.40181 | -75.91498 | 36955 ft | 486 kts | 162° |
| 2026-05-07 07:05 | 14.33719 | -75.89520 | 36954 ft | 484 kts | 162° |
| 2026-05-07 07:06 | 14.27250 | -75.87541 | 36958 ft | 485 kts | 162° |
| 2026-05-07 07:06 | 14.20824 | -75.85576 | 36953 ft | 484 kts | 161° |
| 2026-05-07 07:07 | 14.14354 | -75.83598 | 36954 ft | 485 kts | 162° |
| 2026-05-07 07:07 | 14.07887 | -75.81624 | 36951 ft | 485 kts | 161° |
| 2026-05-07 07:08 | 14.01407 | -75.79646 | 36954 ft | 485 kts | 162° |
| 2026-05-07 07:08 | 13.94938 | -75.77673 | 36953 ft | 485 kts | 162° |
| 2026-05-07 07:09 | 13.88447 | -75.75693 | 36951 ft | 487 kts | 162° |
| 2026-05-07 07:09 | 13.81947 | -75.73714 | 36946 ft | 487 kts | 161° |
| 2026-05-07 07:10 | 13.75447 | -75.71734 | 36950 ft | 488 kts | 162° |
| 2026-05-07 07:10 | 13.68948 | -75.69757 | 36940 ft | 487 kts | 161° |
| 2026-05-07 07:11 | 13.62477 | -75.67789 | 36946 ft | 488 kts | 162° |
| 2026-05-07 07:11 | 13.55974 | -75.65812 | 36943 ft | 487 kts | 162° |
| 2026-05-07 07:12 | 13.49457 | -75.63832 | 36943 ft | 488 kts | 162° |
| 2026-05-07 07:12 | 13.42951 | -75.61857 | 36940 ft | 487 kts | 162° |
| 2026-05-07 07:13 | 13.36421 | -75.59875 | 36940 ft | 489 kts | 162° |
| 2026-05-07 07:13 | 13.29899 | -75.57897 | 36935 ft | 488 kts | 162° |
| 2026-05-07 07:14 | 13.23358 | -75.55915 | 36941 ft | 489 kts | 162° |
| 2026-05-07 07:14 | 13.16840 | -75.53941 | 36932 ft | 488 kts | 162° |
| 2026-05-07 07:15 | 13.10306 | -75.51962 | 36940 ft | 489 kts | 162° |
| 2026-05-07 07:15 | 13.03828 | -75.50002 | 36931 ft | 489 kts | 162° |
| 2026-05-07 07:16 | 12.97294 | -75.48026 | 36934 ft | 490 kts | 162° |
| 2026-05-07 07:16 | 12.90764 | -75.46052 | 36923 ft | 489 kts | 162° |
| 2026-05-07 07:17 | 12.84217 | -75.44074 | 36930 ft | 490 kts | 162° |
| 2026-05-07 07:17 | 12.77688 | -75.42103 | 36923 ft | 489 kts | 162° |
| 2026-05-07 07:18 | 12.71138 | -75.40126 | 36924 ft | 491 kts | 162° |
| 2026-05-07 07:18 | 12.64593 | -75.38152 | 36920 ft | 491 kts | 162° |
| 2026-05-07 07:19 | 12.58020 | -75.36170 | 36921 ft | 492 kts | 162° |
| 2026-05-07 07:19 | 12.51463 | -75.34195 | 36919 ft | 491 kts | 162° |
| 2026-05-07 07:20 | 12.44929 | -75.32227 | 36918 ft | 492 kts | 162° |
| 2026-05-07 07:20 | 12.38353 | -75.30248 | 36916 ft | 491 kts | 162° |
| 2026-05-07 07:21 | 12.31781 | -75.28271 | 36908 ft | 492 kts | 162° |
| 2026-05-07 07:21 | 12.25212 | -75.26296 | 36910 ft | 490 kts | 162° |
| 2026-05-07 07:22 | 12.18644 | -75.24323 | 36905 ft | 492 kts | 163° |
| 2026-05-07 07:22 | 12.12089 | -75.22354 | 36906 ft | 490 kts | 162° |
| 2026-05-07 07:23 | 12.05565 | -75.20396 | 36897 ft | 492 kts | 162° |
| 2026-05-07 07:23 | 11.98986 | -75.18422 | 36900 ft | 491 kts | 163° |
| 2026-05-07 07:24 | 11.92427 | -75.16455 | 36895 ft | 492 kts | 163° |
| 2026-05-07 07:24 | 11.85873 | -75.14491 | 36892 ft | 490 kts | 163° |
| 2026-05-07 07:25 | 11.76047 | -75.11548 | 36894 ft | 491 kts | 163° |
| 2026-05-07 07:26 | 11.69503 | -75.09589 | 36889 ft | 490 kts | 163° |
| 2026-05-07 07:26 | 11.62924 | -75.07676 | 36886 ft | 491 kts | 166° |
| 2026-05-07 07:27 | 11.56370 | -75.05959 | 36884 ft | 488 kts | 167° |
| 2026-05-07 07:27 | 11.49763 | -75.04271 | 36880 ft | 488 kts | 166° |
| 2026-05-07 07:28 | 11.43173 | -75.02572 | 36875 ft | 488 kts | 166° |
| 2026-05-07 07:28 | 11.36587 | -75.00861 | 36877 ft | 488 kts | 166° |
| 2026-05-07 07:29 | 11.30012 | -74.99149 | 36874 ft | 488 kts | 166° |
| 2026-05-07 07:29 | 11.23424 | -74.97434 | 36875 ft | 487 kts | 167° |
| 2026-05-07 07:30 | 11.16922 | -74.95742 | 36874 ft | 484 kts | 167° |
| 2026-05-07 07:30 | 11.10387 | -74.94044 | 36878 ft | 484 kts | 167° |
| 2026-05-07 07:31 | 11.03849 | -74.92345 | 36882 ft | 485 kts | 167° |
| 2026-05-07 07:31 | 10.97313 | -74.90648 | 36882 ft | 484 kts | 167° |
| 2026-05-07 07:32 | 10.90775 | -74.88951 | 36882 ft | 484 kts | 167° |
| 2026-05-07 07:32 | 10.84288 | -74.87268 | 36882 ft | 484 kts | 167° |
| 2026-05-07 07:33 | 10.77764 | -74.85555 | 36882 ft | 484 kts | 166° |
| 2026-05-07 07:33 | 10.71278 | -74.83729 | 36880 ft | 484 kts | 165° |
| 2026-05-07 07:34 | 10.64794 | -74.81868 | 36879 ft | 484 kts | 165° |
| 2026-05-07 07:34 | 10.58312 | -74.80017 | 36875 ft | 484 kts | 166° |
| 2026-05-07 07:35 | 10.51826 | -74.78175 | 36873 ft | 484 kts | 166° |
| 2026-05-07 07:35 | 10.45341 | -74.76339 | 36874 ft | 484 kts | 166° |
| 2026-05-07 07:36 | 10.38888 | -74.74512 | 36872 ft | 484 kts | 166° |
| 2026-05-07 07:36 | 10.32396 | -74.72675 | 36875 ft | 484 kts | 166° |
| 2026-05-07 07:37 | 10.25902 | -74.70838 | 36873 ft | 484 kts | 166° |
| 2026-05-07 07:37 | 10.19418 | -74.69004 | 36874 ft | 484 kts | 166° |
| 2026-05-07 07:38 | 10.12928 | -74.67169 | 36876 ft | 484 kts | 166° |
| 2026-05-07 07:38 | 10.06461 | -74.65342 | 36875 ft | 483 kts | 166° |
| 2026-05-07 07:39 | 9.99973 | -74.63510 | 36873 ft | 483 kts | 166° |
| 2026-05-07 07:39 | 9.93493 | -74.61680 | 36873 ft | 483 kts | 166° |
| 2026-05-07 07:40 | 9.87011 | -74.59851 | 36875 ft | 483 kts | 166° |
| 2026-05-07 07:40 | 9.80516 | -74.58018 | 36875 ft | 483 kts | 166° |
| 2026-05-07 07:41 | 9.74043 | -74.56193 | 36876 ft | 483 kts | 166° |
| 2026-05-07 07:41 | 9.68664 | -74.54677 | 36875 ft | 483 kts | 166° |
| 2026-05-07 07:42 | 9.61140 | -74.52557 | 36869 ft | 483 kts | 166° |
| 2026-05-07 07:42 | 9.54662 | -74.50732 | 36870 ft | 483 kts | 166° |
| 2026-05-07 07:43 | 9.49281 | -74.49217 | 36874 ft | 483 kts | 166° |
| 2026-05-07 07:43 | 9.42809 | -74.47396 | 36870 ft | 482 kts | 166° |
| 2026-05-07 07:44 | 9.36346 | -74.45578 | 36869 ft | 482 kts | 166° |
| 2026-05-07 07:44 | 9.29879 | -74.43759 | 36870 ft | 482 kts | 166° |
| 2026-05-07 07:45 | 9.23417 | -74.41942 | 36869 ft | 482 kts | 166° |
| 2026-05-07 07:45 | 9.16951 | -74.40125 | 36871 ft | 482 kts | 166° |
| 2026-05-07 07:46 | 9.10477 | -74.38307 | 36870 ft | 482 kts | 165° |
| 2026-05-07 07:46 | 9.04004 | -74.36489 | 36872 ft | 482 kts | 165° |
| 2026-05-07 07:47 | 8.97540 | -74.34675 | 36874 ft | 481 kts | 166° |
| 2026-05-07 07:47 | 8.91113 | -74.32871 | 36872 ft | 478 kts | 166° |
| 2026-05-07 07:48 | 8.84738 | -74.31083 | 36874 ft | 477 kts | 166° |
| 2026-05-07 07:48 | 8.78333 | -74.29287 | 36875 ft | 478 kts | 166° |
| 2026-05-07 07:49 | 8.71934 | -74.27494 | 36882 ft | 476 kts | 165° |
| 2026-05-07 07:49 | 8.65583 | -74.25714 | 36883 ft | 472 kts | 165° |
| 2026-05-07 07:50 | 8.59261 | -74.23943 | 36896 ft | 472 kts | 165° |
| 2026-05-07 07:50 | 8.52932 | -74.22171 | 36897 ft | 472 kts | 165° |
| 2026-05-07 07:51 | 8.46602 | -74.20400 | 36894 ft | 472 kts | 165° |
| 2026-05-07 07:51 | 8.40272 | -74.18628 | 36910 ft | 472 kts | 165° |
| 2026-05-07 07:52 | 8.33939 | -74.16857 | 36911 ft | 473 kts | 165° |
| 2026-05-07 07:52 | 8.27627 | -74.15092 | 36919 ft | 473 kts | 165° |
| 2026-05-07 07:53 | 8.21282 | -74.13319 | 36922 ft | 473 kts | 165° |
| 2026-05-07 07:53 | 8.14890 | -74.11533 | 36930 ft | 473 kts | 165° |
| 2026-05-07 07:54 | 8.08584 | -74.09772 | 36934 ft | 473 kts | 165° |
| 2026-05-07 07:54 | 8.02233 | -74.07998 | 36933 ft | 473 kts | 165° |
| 2026-05-07 07:55 | 7.95897 | -74.06233 | 36917 ft | 471 kts | 165° |
| 2026-05-07 07:55 | 7.89575 | -74.04484 | 36917 ft | 471 kts | 165° |
| 2026-05-07 07:56 | 7.83249 | -74.02737 | 36911 ft | 471 kts | 165° |
| 2026-05-07 07:56 | 7.76917 | -74.00988 | 36911 ft | 471 kts | 165° |
| 2026-05-07 07:57 | 7.70640 | -73.99254 | 36910 ft | 471 kts | 166° |
| 2026-05-07 07:57 | 7.64322 | -73.97509 | 36914 ft | 471 kts | 166° |
| 2026-05-07 07:58 | 7.57970 | -73.95756 | 36904 ft | 474 kts | 166° |
| 2026-05-07 07:58 | 7.51603 | -73.93998 | 36903 ft | 474 kts | 166° |
| 2026-05-07 07:59 | 7.45236 | -73.92241 | 36889 ft | 474 kts | 166° |
| 2026-05-07 07:59 | 7.38862 | -73.90483 | 36886 ft | 474 kts | 166° |
| 2026-05-07 08:00 | 7.32496 | -73.88727 | 36887 ft | 474 kts | 166° |
| 2026-05-07 08:00 | 7.26122 | -73.86971 | 36885 ft | 474 kts | 166° |
| 2026-05-07 08:01 | 7.19801 | -73.85228 | 36886 ft | 474 kts | 166° |
| 2026-05-07 08:01 | 7.13437 | -73.83474 | 36884 ft | 474 kts | 166° |
| 2026-05-07 08:02 | 7.07073 | -73.81721 | 36884 ft | 474 kts | 166° |
| 2026-05-07 08:02 | 7.00705 | -73.79985 | 36857 ft | 474 kts | 166° |
| 2026-05-07 08:03 | 6.94318 | -73.78313 | 36857 ft | 474 kts | 166° |
| 2026-05-07 08:03 | 6.87934 | -73.76660 | 36863 ft | 474 kts | 166° |
| 2026-05-07 08:04 | 6.81552 | -73.75003 | 36877 ft | 474 kts | 166° |
| 2026-05-07 08:04 | 6.75169 | -73.73341 | 36888 ft | 474 kts | 166° |
| 2026-05-07 08:05 | 6.68817 | -73.71685 | 36917 ft | 474 kts | 166° |
| 2026-05-07 08:05 | 6.62430 | -73.70022 | 36918 ft | 474 kts | 166° |
| 2026-05-07 08:06 | 6.56047 | -73.68360 | 36938 ft | 474 kts | 166° |
| 2026-05-07 08:06 | 6.49683 | -73.66703 | 36935 ft | 472 kts | 166° |
| 2026-05-07 08:07 | 6.43315 | -73.65045 | 36971 ft | 472 kts | 167° |
| 2026-05-07 08:07 | 6.36959 | -73.63390 | 36984 ft | 471 kts | 167° |
| 2026-05-07 08:08 | 6.30609 | -73.61739 | 36989 ft | 471 kts | 167° |
| 2026-05-07 08:08 | 6.24261 | -73.60088 | 37009 ft | 471 kts | 167° |
| 2026-05-07 08:09 | 6.17953 | -73.58448 | 37010 ft | 471 kts | 166° |
| 2026-05-07 08:09 | 6.11611 | -73.56799 | 37043 ft | 470 kts | 166° |
| 2026-05-07 08:10 | 6.05278 | -73.55153 | 37040 ft | 470 kts | 166° |
| 2026-05-07 08:10 | 5.98947 | -73.53508 | 37040 ft | 470 kts | 166° |
| 2026-05-07 08:11 | 5.92608 | -73.51862 | 37079 ft | 470 kts | 166° |
| 2026-05-07 08:11 | 5.86269 | -73.50216 | 37089 ft | 470 kts | 166° |
| 2026-05-07 08:12 | 5.79936 | -73.48571 | 37130 ft | 469 kts | 167° |
| 2026-05-07 08:12 | 5.73612 | -73.46930 | 37130 ft | 469 kts | 167° |
| 2026-05-07 08:13 | 5.67295 | -73.45291 | 37164 ft | 469 kts | 166° |
| 2026-05-07 08:13 | 5.61016 | -73.43661 | 37163 ft | 469 kts | 166° |
| 2026-05-07 08:14 | 5.54700 | -73.42023 | 37181 ft | 469 kts | 166° |
| 2026-05-07 08:14 | 5.48379 | -73.40382 | 37184 ft | 469 kts | 167° |
| 2026-05-07 08:15 | 5.42067 | -73.38746 | 37189 ft | 468 kts | 166° |
| 2026-05-07 08:15 | 5.35763 | -73.37113 | 37188 ft | 468 kts | 167° |
| 2026-05-07 08:16 | 5.29467 | -73.35481 | 37183 ft | 467 kts | 167° |
| 2026-05-07 08:16 | 5.23171 | -73.33849 | 37164 ft | 467 kts | 167° |
| 2026-05-07 08:17 | 5.16867 | -73.32216 | 37165 ft | 468 kts | 166° |
| 2026-05-07 08:17 | 5.10568 | -73.30585 | 37141 ft | 467 kts | 166° |
| 2026-05-07 08:18 | 5.04276 | -73.28956 | 37145 ft | 466 kts | 166° |
| 2026-05-07 08:18 | 4.97993 | -73.27328 | 37148 ft | 466 kts | 166° |
| 2026-05-07 08:19 | 4.91717 | -73.25703 | 37128 ft | 466 kts | 166° |
| 2026-05-07 08:19 | 4.85440 | -73.24079 | 37129 ft | 466 kts | 166° |
| 2026-05-07 08:20 | 4.79166 | -73.22456 | 37072 ft | 466 kts | 166° |
| 2026-05-07 08:20 | 4.72887 | -73.20831 | 37073 ft | 466 kts | 166° |
| 2026-05-07 08:21 | 4.66642 | -73.19216 | 37058 ft | 467 kts | 166° |
| 2026-05-07 08:21 | 4.60350 | -73.17589 | 37061 ft | 467 kts | 166° |
| 2026-05-07 08:22 | 4.54058 | -73.15962 | 37061 ft | 467 kts | 166° |
| 2026-05-07 08:22 | 4.47764 | -73.14335 | 37045 ft | 467 kts | 166° |
| 2026-05-07 08:23 | 4.41468 | -73.12707 | 37049 ft | 467 kts | 166° |
| 2026-05-07 08:23 | 4.35180 | -73.11082 | 37045 ft | 467 kts | 166° |
| 2026-05-07 08:24 | 4.28868 | -73.09452 | 37047 ft | 469 kts | 166° |
| 2026-05-07 08:24 | 4.22554 | -73.07820 | 37030 ft | 469 kts | 166° |
| 2026-05-07 08:25 | 4.16237 | -73.06188 | 37025 ft | 469 kts | 166° |
| 2026-05-07 08:25 | 4.09919 | -73.04557 | 37031 ft | 469 kts | 166° |
| 2026-05-07 08:26 | 4.00481 | -73.02119 | 37030 ft | 469 kts | 166° |
| 2026-05-07 08:26 | 3.94163 | -73.00479 | 37036 ft | 469 kts | 166° |
| 2026-05-07 08:27 | 3.87844 | -72.98839 | 37037 ft | 469 kts | 166° |
| 2026-05-07 08:27 | 3.81521 | -72.97199 | 37035 ft | 469 kts | 166° |
| 2026-05-07 08:28 | 3.75199 | -72.95559 | 37034 ft | 469 kts | 166° |
| 2026-05-07 08:28 | 3.69902 | -72.94186 | 37029 ft | 469 kts | 166° |
| 2026-05-07 08:29 | 3.63597 | -72.92551 | 37028 ft | 468 kts | 166° |
| 2026-05-07 08:29 | 3.57289 | -72.90916 | 37026 ft | 469 kts | 166° |
| 2026-05-07 08:30 | 3.50965 | -72.89277 | 37023 ft | 469 kts | 166° |
| 2026-05-07 08:30 | 3.44641 | -72.87638 | 37026 ft | 469 kts | 166° |
| 2026-05-07 08:31 | 3.38313 | -72.85999 | 37027 ft | 469 kts | 166° |
| 2026-05-07 08:31 | 3.31991 | -72.84361 | 37027 ft | 470 kts | 166° |
| 2026-05-07 08:32 | 3.25705 | -72.82733 | 37023 ft | 470 kts | 166° |
| 2026-05-07 08:32 | 3.19374 | -72.81093 | 37011 ft | 470 kts | 166° |
| 2026-05-07 08:33 | 3.13030 | -72.79450 | 37013 ft | 470 kts | 166° |
| 2026-05-07 08:33 | 3.06705 | -72.77812 | 37011 ft | 470 kts | 166° |
| 2026-05-07 08:34 | 3.00380 | -72.76175 | 37010 ft | 470 kts | 166° |
| 2026-05-07 08:34 | 2.94085 | -72.74545 | 37008 ft | 470 kts | 166° |
| 2026-05-07 08:35 | 2.87747 | -72.72905 | 37006 ft | 470 kts | 166° |
| 2026-05-07 08:35 | 2.81415 | -72.71266 | 37003 ft | 470 kts | 166° |
| 2026-05-07 08:36 | 2.75072 | -72.69625 | 36997 ft | 470 kts | 166° |
| 2026-05-07 08:36 | 2.68741 | -72.67986 | 36995 ft | 470 kts | 166° |
| 2026-05-07 08:37 | 2.62407 | -72.66348 | 36995 ft | 470 kts | 166° |
| 2026-05-07 08:37 | 2.56103 | -72.64717 | 36994 ft | 470 kts | 166° |
| 2026-05-07 08:38 | 2.49893 | -72.62628 | 36995 ft | 471 kts | 160° |
| 2026-05-07 08:38 | 2.43776 | -72.60232 | 36993 ft | 472 kts | 159° |
| 2026-05-07 08:39 | 2.37677 | -72.57780 | 36987 ft | 472 kts | 159° |
| 2026-05-07 08:39 | 2.31572 | -72.55326 | 36981 ft | 472 kts | 159° |
| 2026-05-07 08:40 | 2.25470 | -72.52884 | 36979 ft | 472 kts | 159° |
| 2026-05-07 08:40 | 2.19366 | -72.50447 | 36976 ft | 472 kts | 159° |
| 2026-05-07 08:41 | 2.13253 | -72.48007 | 36980 ft | 473 kts | 159° |
| 2026-05-07 08:41 | 2.07145 | -72.45569 | 36978 ft | 473 kts | 159° |
| 2026-05-07 08:42 | 2.01033 | -72.43129 | 36980 ft | 473 kts | 159° |
| 2026-05-07 08:42 | 1.94960 | -72.40705 | 36978 ft | 473 kts | 159° |
| 2026-05-07 08:43 | 1.88844 | -72.38264 | 36979 ft | 473 kts | 159° |
| 2026-05-07 08:43 | 1.82728 | -72.35823 | 36982 ft | 473 kts | 159° |
| 2026-05-07 08:44 | 1.76609 | -72.33381 | 36978 ft | 474 kts | 159° |
| 2026-05-07 08:44 | 1.70481 | -72.30935 | 36980 ft | 474 kts | 159° |
| 2026-05-07 08:45 | 1.64353 | -72.28490 | 36978 ft | 474 kts | 159° |
| 2026-05-07 08:45 | 1.58228 | -72.26046 | 36976 ft | 474 kts | 159° |
| 2026-05-07 08:46 | 1.52094 | -72.23599 | 36981 ft | 474 kts | 159° |
| 2026-05-07 08:46 | 1.45971 | -72.21157 | 36980 ft | 474 kts | 159° |
| 2026-05-07 08:47 | 1.39844 | -72.18712 | 36975 ft | 474 kts | 159° |
| 2026-05-07 08:47 | 1.33724 | -72.16271 | 36976 ft | 473 kts | 159° |
| 2026-05-07 08:48 | 1.27602 | -72.13829 | 36977 ft | 473 kts | 159° |
| 2026-05-07 08:48 | 1.21487 | -72.11391 | 36980 ft | 473 kts | 159° |
| 2026-05-07 08:49 | 1.15402 | -72.08963 | 36982 ft | 473 kts | 159° |
| 2026-05-07 08:49 | 1.09288 | -72.06525 | 36980 ft | 473 kts | 159° |
| 2026-05-07 08:50 | 1.03179 | -72.04089 | 36979 ft | 471 kts | 159° |
| 2026-05-07 08:50 | 0.97085 | -72.01659 | 36978 ft | 470 kts | 159° |
| 2026-05-07 08:51 | 0.90999 | -71.99232 | 36982 ft | 470 kts | 159° |
| 2026-05-07 08:51 | 0.84918 | -71.96807 | 36975 ft | 470 kts | 159° |
| 2026-05-07 08:52 | 0.78832 | -71.94381 | 36980 ft | 471 kts | 159° |
| 2026-05-07 08:52 | 0.72751 | -71.91956 | 36978 ft | 471 kts | 159° |
| 2026-05-07 08:53 | 0.66721 | -71.89551 | 36976 ft | 469 kts | 159° |
| 2026-05-07 08:53 | 0.60666 | -71.87137 | 36975 ft | 469 kts | 159° |
| 2026-05-07 08:54 | 0.54603 | -71.84720 | 36974 ft | 469 kts | 159° |
| 2026-05-07 08:54 | 0.48541 | -71.82304 | 36975 ft | 469 kts | 159° |
| 2026-05-07 08:55 | 0.42483 | -71.79889 | 36971 ft | 469 kts | 159° |
| 2026-05-07 08:55 | 0.36417 | -71.77471 | 36970 ft | 469 kts | 159° |
| 2026-05-07 08:56 | 0.30355 | -71.75054 | 36971 ft | 470 kts | 159° |
| 2026-05-07 08:56 | 0.24283 | -71.72628 | 36977 ft | 470 kts | 159° |
| 2026-05-07 08:57 | 0.18206 | -71.70192 | 36970 ft | 470 kts | 159° |
| 2026-05-07 08:57 | 0.12142 | -71.67762 | 36972 ft | 470 kts | 159° |
| 2026-05-07 08:58 | 0.06101 | -71.65342 | 36971 ft | 470 kts | 159° |
| 2026-05-07 08:58 | 0.00026 | -71.62909 | 36972 ft | 470 kts | 159° |
| 2026-05-07 08:59 | -0.06049 | -71.60476 | 36974 ft | 471 kts | 160° |
| 2026-05-07 08:59 | -0.12135 | -71.58039 | 36974 ft | 471 kts | 160° |
| 2026-05-07 09:00 | -0.18221 | -71.55602 | 36973 ft | 471 kts | 160° |
| 2026-05-07 09:00 | -0.24307 | -71.53165 | 36972 ft | 470 kts | 160° |
| 2026-05-07 09:01 | -0.30388 | -71.50729 | 36968 ft | 470 kts | 160° |
| 2026-05-07 09:01 | -0.36463 | -71.48296 | 36971 ft | 470 kts | 160° |
| 2026-05-07 09:02 | -0.42537 | -71.45863 | 36974 ft | 470 kts | 160° |
| 2026-05-07 09:02 | -0.48583 | -71.43442 | 36968 ft | 470 kts | 160° |
| 2026-05-07 09:03 | -0.54663 | -71.41006 | 36970 ft | 470 kts | 160° |
| 2026-05-07 09:03 | -0.60740 | -71.38573 | 36969 ft | 470 kts | 160° |
| 2026-05-07 09:04 | -0.66820 | -71.36137 | 36972 ft | 471 kts | 160° |
| 2026-05-07 09:04 | -0.72896 | -71.33703 | 36980 ft | 471 kts | 160° |
| 2026-05-07 09:05 | -0.78975 | -71.31268 | 36972 ft | 470 kts | 160° |
| 2026-05-07 09:05 | -0.85041 | -71.28838 | 36973 ft | 470 kts | 160° |
| 2026-05-07 09:06 | -0.91107 | -71.26408 | 36967 ft | 470 kts | 160° |
| 2026-05-07 09:06 | -0.97141 | -71.23991 | 36972 ft | 470 kts | 160° |
| 2026-05-07 09:07 | -1.03208 | -71.21561 | 36967 ft | 470 kts | 160° |
| 2026-05-07 09:07 | -1.09272 | -71.19131 | 36973 ft | 470 kts | 160° |
| 2026-05-07 09:08 | -1.15333 | -71.16703 | 36972 ft | 469 kts | 160° |
| 2026-05-07 09:08 | -1.21386 | -71.14277 | 36970 ft | 469 kts | 160° |
| 2026-05-07 09:09 | -1.27447 | -71.11849 | 36967 ft | 469 kts | 160° |
| 2026-05-07 09:09 | -1.33502 | -71.09422 | 36968 ft | 469 kts | 160° |
| 2026-05-07 09:10 | -1.39551 | -71.06998 | 36969 ft | 469 kts | 160° |
| 2026-05-07 09:10 | -1.45608 | -71.04571 | 36972 ft | 468 kts | 160° |
| 2026-05-07 09:11 | -1.51647 | -71.02150 | 36969 ft | 467 kts | 160° |
| 2026-05-07 09:11 | -1.57632 | -70.99751 | 36964 ft | 466 kts | 160° |
| 2026-05-07 09:12 | -1.63655 | -70.97337 | 36967 ft | 466 kts | 160° |
| 2026-05-07 09:12 | -1.69677 | -70.94923 | 36964 ft | 466 kts | 160° |
| 2026-05-07 09:13 | -1.75700 | -70.92509 | 36968 ft | 466 kts | 160° |
| 2026-05-07 09:13 | -1.80710 | -70.90501 | 36965 ft | 466 kts | 159° |
| 2026-05-07 09:14 | -1.86731 | -70.88086 | 36967 ft | 466 kts | 159° |
| 2026-05-07 09:14 | -1.92764 | -70.85668 | 36970 ft | 467 kts | 159° |
| 2026-05-07 09:15 | -1.98789 | -70.83208 | 36965 ft | 468 kts | 158° |
| 2026-05-07 09:15 | -2.04774 | -70.80634 | 36969 ft | 468 kts | 158° |
| 2026-05-07 09:16 | -2.10755 | -70.78036 | 36969 ft | 468 kts | 158° |
| 2026-05-07 09:16 | -2.16733 | -70.75450 | 36964 ft | 468 kts | 158° |
| 2026-05-07 09:17 | -2.22723 | -70.72869 | 36971 ft | 468 kts | 158° |
| 2026-05-07 09:17 | -2.28706 | -70.70294 | 36970 ft | 469 kts | 158° |
| 2026-05-07 09:18 | -2.34666 | -70.67748 | 36967 ft | 468 kts | 159° |
| 2026-05-07 09:18 | -2.40710 | -70.65306 | 36966 ft | 468 kts | 159° |
| 2026-05-07 09:19 | -2.46770 | -70.62906 | 36967 ft | 468 kts | 159° |
| 2026-05-07 09:19 | -2.52828 | -70.60500 | 36968 ft | 468 kts | 160° |
| 2026-05-07 09:20 | -2.58893 | -70.58079 | 36969 ft | 470 kts | 160° |
| 2026-05-07 09:20 | -2.64966 | -70.55650 | 36964 ft | 470 kts | 160° |
| 2026-05-07 09:21 | -2.71041 | -70.53219 | 36970 ft | 470 kts | 159° |
| 2026-05-07 09:21 | -2.77120 | -70.50787 | 36971 ft | 469 kts | 159° |
| 2026-05-07 09:22 | -2.83180 | -70.48362 | 36968 ft | 469 kts | 159° |
| 2026-05-07 09:22 | -2.89209 | -70.45950 | 36966 ft | 469 kts | 160° |
| 2026-05-07 09:23 | -2.95263 | -70.43527 | 36970 ft | 468 kts | 160° |
| 2026-05-07 09:23 | -3.01311 | -70.41106 | 36967 ft | 468 kts | 160° |
| 2026-05-07 09:24 | -3.07362 | -70.38684 | 36964 ft | 468 kts | 160° |
| 2026-05-07 09:24 | -3.13414 | -70.36262 | 36967 ft | 468 kts | 160° |
| 2026-05-07 09:25 | -3.19472 | -70.33836 | 36968 ft | 468 kts | 160° |
| 2026-05-07 09:25 | -3.25497 | -70.31422 | 36968 ft | 468 kts | 160° |
| 2026-05-07 09:26 | -3.31524 | -70.29003 | 36965 ft | 466 kts | 160° |
| 2026-05-07 09:26 | -3.37558 | -70.26581 | 36967 ft | 466 kts | 160° |
| 2026-05-07 09:27 | -3.43574 | -70.24166 | 36968 ft | 466 kts | 160° |
| 2026-05-07 09:28 | -3.52602 | -70.20542 | 36968 ft | 466 kts | 160° |
| 2026-05-07 09:28 | -3.58617 | -70.18127 | 36967 ft | 467 kts | 159° |
| 2026-05-07 09:29 | -3.64647 | -70.15706 | 36961 ft | 467 kts | 159° |
| 2026-05-07 09:29 | -3.70677 | -70.13284 | 36968 ft | 467 kts | 159° |
| 2026-05-07 09:30 | -3.76668 | -70.10878 | 36969 ft | 467 kts | 159° |
| 2026-05-07 09:30 | -3.82693 | -70.08457 | 36966 ft | 467 kts | 159° |
| 2026-05-07 09:31 | -3.88721 | -70.06035 | 36965 ft | 467 kts | 159° |
| 2026-05-07 09:31 | -3.94755 | -70.03610 | 36956 ft | 467 kts | 159° |
| 2026-05-07 09:32 | -4.00779 | -70.01189 | 36950 ft | 467 kts | 159° |
| 2026-05-07 09:32 | -4.06816 | -69.98762 | 36940 ft | 467 kts | 159° |
| 2026-05-07 09:33 | -4.12804 | -69.96355 | 36938 ft | 467 kts | 159° |
| 2026-05-07 09:33 | -4.18832 | -69.93940 | 36940 ft | 466 kts | 160° |
| 2026-05-07 09:34 | -4.24925 | -69.91709 | 36965 ft | 466 kts | 162° |
| 2026-05-07 09:34 | -4.31052 | -69.89578 | 36960 ft | 466 kts | 162° |
| 2026-05-07 09:35 | -4.37190 | -69.87438 | 36966 ft | 467 kts | 162° |
| 2026-05-07 09:35 | -4.43320 | -69.85281 | 36965 ft | 468 kts | 161° |
| 2026-05-07 09:36 | -4.49464 | -69.83108 | 36964 ft | 469 kts | 161° |
| 2026-05-07 09:36 | -4.55612 | -69.80932 | 36962 ft | 469 kts | 161° |
| 2026-05-07 09:37 | -4.61764 | -69.78756 | 36964 ft | 469 kts | 161° |
| 2026-05-07 09:37 | -4.67922 | -69.76583 | 36966 ft | 469 kts | 162° |
| 2026-05-07 09:38 | -4.74070 | -69.74413 | 36970 ft | 469 kts | 162° |
| 2026-05-07 09:38 | -4.80219 | -69.72243 | 36970 ft | 468 kts | 162° |
| 2026-05-07 09:39 | -4.86369 | -69.70072 | 36968 ft | 468 kts | 162° |
| 2026-05-07 09:39 | -4.92473 | -69.67917 | 36967 ft | 468 kts | 162° |
| 2026-05-07 09:40 | -4.98622 | -69.65728 | 36969 ft | 468 kts | 161° |
| 2026-05-07 09:40 | -5.04757 | -69.63531 | 36969 ft | 468 kts | 161° |
| 2026-05-07 09:41 | -5.10897 | -69.61332 | 36968 ft | 468 kts | 162° |
| 2026-05-07 09:41 | -5.17035 | -69.59136 | 36971 ft | 468 kts | 162° |
| 2026-05-07 09:42 | -5.23162 | -69.56944 | 36967 ft | 467 kts | 162° |
| 2026-05-07 09:42 | -5.29297 | -69.54749 | 36965 ft | 468 kts | 162° |
| 2026-05-07 09:43 | -5.35379 | -69.52572 | 36962 ft | 468 kts | 162° |
| 2026-05-07 09:43 | -5.41516 | -69.50376 | 36965 ft | 468 kts | 162° |
| 2026-05-07 09:44 | -5.47653 | -69.48178 | 36969 ft | 468 kts | 162° |
| 2026-05-07 09:44 | -5.53790 | -69.45980 | 36967 ft | 468 kts | 162° |
| 2026-05-07 09:45 | -5.59934 | -69.43779 | 36964 ft | 468 kts | 162° |
| 2026-05-07 09:45 | -5.66077 | -69.41579 | 36963 ft | 468 kts | 162° |
| 2026-05-07 09:46 | -5.72189 | -69.39388 | 36961 ft | 469 kts | 162° |
| 2026-05-07 09:46 | -5.78340 | -69.37183 | 36968 ft | 470 kts | 162° |
| 2026-05-07 09:47 | -5.84497 | -69.34976 | 36964 ft | 470 kts | 162° |
| 2026-05-07 09:47 | -5.90656 | -69.32767 | 36964 ft | 470 kts | 162° |
| 2026-05-07 09:48 | -5.96812 | -69.30559 | 36962 ft | 470 kts | 162° |
| 2026-05-07 09:48 | -6.02964 | -69.28352 | 36965 ft | 470 kts | 162° |
| 2026-05-07 09:49 | -6.09125 | -69.26140 | 36966 ft | 470 kts | 162° |
| 2026-05-07 09:49 | -6.15292 | -69.23927 | 36963 ft | 470 kts | 162° |
| 2026-05-07 09:50 | -6.21456 | -69.21714 | 36970 ft | 470 kts | 162° |
| 2026-05-07 09:50 | -6.27628 | -69.19492 | 36965 ft | 470 kts | 162° |
| 2026-05-07 09:51 | -6.33776 | -69.17250 | 36961 ft | 470 kts | 161° |
| 2026-05-07 09:51 | -6.39929 | -69.14997 | 36966 ft | 470 kts | 161° |
| 2026-05-07 09:52 | -6.46047 | -69.12759 | 36967 ft | 470 kts | 161° |
| 2026-05-07 09:52 | -6.52199 | -69.10510 | 36965 ft | 470 kts | 161° |
| 2026-05-07 09:53 | -6.58348 | -69.08262 | 36963 ft | 470 kts | 161° |
| 2026-05-07 09:53 | -6.64499 | -69.06013 | 36966 ft | 470 kts | 161° |
| 2026-05-07 09:54 | -6.70655 | -69.03764 | 36963 ft | 470 kts | 162° |
| 2026-05-07 09:54 | -6.76827 | -69.01555 | 36964 ft | 471 kts | 162° |
| 2026-05-07 09:55 | -6.83013 | -68.99361 | 36966 ft | 472 kts | 162° |
| 2026-05-07 09:55 | -6.89208 | -68.97161 | 36964 ft | 472 kts | 162° |
| 2026-05-07 09:56 | -6.95395 | -68.94959 | 36964 ft | 472 kts | 162° |
| 2026-05-07 09:56 | -7.01565 | -68.92761 | 36965 ft | 472 kts | 162° |
| 2026-05-07 09:57 | -7.07754 | -68.90556 | 36963 ft | 472 kts | 162° |
| 2026-05-07 09:57 | -7.13948 | -68.88347 | 36964 ft | 472 kts | 162° |
| 2026-05-07 09:58 | -7.20146 | -68.86138 | 36966 ft | 472 kts | 162° |
| 2026-05-07 09:58 | -7.25303 | -68.84299 | 36963 ft | 472 kts | 162° |
| 2026-05-07 09:59 | -7.31498 | -68.82089 | 36964 ft | 472 kts | 162° |
| 2026-05-07 09:59 | -7.37656 | -68.79891 | 36963 ft | 472 kts | 162° |
| 2026-05-07 10:00 | -7.43843 | -68.77682 | 36968 ft | 472 kts | 162° |
| 2026-05-07 10:00 | -7.50033 | -68.75472 | 36971 ft | 472 kts | 162° |
| 2026-05-07 10:01 | -7.56224 | -68.73261 | 36967 ft | 472 kts | 162° |
| 2026-05-07 10:01 | -7.62414 | -68.71050 | 36963 ft | 472 kts | 162° |
| 2026-05-07 10:02 | -7.68613 | -68.68835 | 36964 ft | 472 kts | 162° |
| 2026-05-07 10:02 | -7.74800 | -68.66609 | 36965 ft | 472 kts | 162° |
| 2026-05-07 10:03 | -7.80962 | -68.64383 | 36969 ft | 471 kts | 162° |
| 2026-05-07 10:03 | -7.87126 | -68.62156 | 36966 ft | 470 kts | 162° |
| 2026-05-07 10:04 | -7.93294 | -68.59929 | 36967 ft | 470 kts | 162° |
| 2026-05-07 10:04 | -7.99455 | -68.57704 | 36969 ft | 470 kts | 162° |
| 2026-05-07 10:05 | -8.05614 | -68.55479 | 36968 ft | 470 kts | 162° |
| 2026-05-07 10:05 | -8.11778 | -68.53252 | 36970 ft | 470 kts | 162° |
| 2026-05-07 10:06 | -8.17942 | -68.51023 | 36965 ft | 471 kts | 162° |
| 2026-05-07 10:06 | -8.24083 | -68.48803 | 36965 ft | 471 kts | 162° |
| 2026-05-07 10:07 | -8.30260 | -68.46568 | 36967 ft | 471 kts | 162° |
| 2026-05-07 10:07 | -8.36430 | -68.44335 | 36967 ft | 471 kts | 162° |
| 2026-05-07 10:08 | -8.42605 | -68.42100 | 36966 ft | 471 kts | 162° |
| 2026-05-07 10:08 | -8.48775 | -68.39866 | 36967 ft | 471 kts | 162° |
| 2026-05-07 10:09 | -8.54954 | -68.37628 | 36967 ft | 471 kts | 162° |
| 2026-05-07 10:09 | -8.61118 | -68.35395 | 36963 ft | 471 kts | 162° |
| 2026-05-07 10:10 | -8.67284 | -68.33159 | 36965 ft | 471 kts | 162° |
| 2026-05-07 10:10 | -8.73420 | -68.30935 | 36968 ft | 471 kts | 162° |
| 2026-05-07 10:11 | -8.79594 | -68.28695 | 36968 ft | 471 kts | 162° |
| 2026-05-07 10:11 | -8.85767 | -68.26456 | 36964 ft | 472 kts | 162° |
| 2026-05-07 10:12 | -8.91950 | -68.24211 | 36965 ft | 472 kts | 162° |
| 2026-05-07 10:12 | -8.98130 | -68.21967 | 36968 ft | 472 kts | 162° |
| 2026-05-07 10:13 | -9.04318 | -68.19719 | 36970 ft | 472 kts | 162° |
| 2026-05-07 10:13 | -9.10501 | -68.17472 | 36966 ft | 472 kts | 162° |
| 2026-05-07 10:14 | -9.16681 | -68.15226 | 36966 ft | 472 kts | 162° |
| 2026-05-07 10:14 | -9.22874 | -68.12974 | 36963 ft | 473 kts | 162° |
| 2026-05-07 10:15 | -9.29098 | -68.10772 | 36970 ft | 473 kts | 163° |
| 2026-05-07 10:15 | -9.35334 | -68.08626 | 36966 ft | 473 kts | 163° |
| 2026-05-07 10:16 | -9.41567 | -68.06484 | 36969 ft | 473 kts | 163° |
| 2026-05-07 10:16 | -9.47761 | -68.04346 | 36966 ft | 473 kts | 163° |
| 2026-05-07 10:17 | -9.54001 | -68.02187 | 36963 ft | 474 kts | 163° |
| 2026-05-07 10:17 | -9.60251 | -68.00023 | 36965 ft | 474 kts | 163° |
| 2026-05-07 10:18 | -9.66497 | -67.97860 | 36964 ft | 474 kts | 163° |
| 2026-05-07 10:18 | -9.72744 | -67.95695 | 36967 ft | 474 kts | 163° |
| 2026-05-07 10:19 | -9.78994 | -67.93529 | 36966 ft | 474 kts | 163° |
| 2026-05-07 10:19 | -9.85238 | -67.91364 | 36967 ft | 474 kts | 163° |
| 2026-05-07 10:20 | -9.91497 | -67.89279 | 36968 ft | 473 kts | 165° |
| 2026-05-07 10:20 | -9.97785 | -67.87325 | 36966 ft | 473 kts | 165° |
| 2026-05-07 10:21 | -10.04081 | -67.85384 | 36964 ft | 473 kts | 165° |
| 2026-05-07 10:21 | -10.10370 | -67.83431 | 36962 ft | 473 kts | 165° |
| 2026-05-07 10:22 | -10.16672 | -67.81461 | 36963 ft | 473 kts | 165° |
| 2026-05-07 10:22 | -10.22978 | -67.79488 | 36965 ft | 475 kts | 165° |
| 2026-05-07 10:23 | -10.29292 | -67.77511 | 36960 ft | 475 kts | 165° |
| 2026-05-07 10:23 | -10.35606 | -67.75533 | 36965 ft | 475 kts | 165° |
| 2026-05-07 10:24 | -10.41879 | -67.73568 | 36968 ft | 475 kts | 165° |
| 2026-05-07 10:24 | -10.48198 | -67.71588 | 36968 ft | 475 kts | 165° |
| 2026-05-07 10:25 | -10.54502 | -67.69611 | 36961 ft | 474 kts | 165° |
| 2026-05-07 10:25 | -10.60813 | -67.67633 | 36963 ft | 474 kts | 165° |
| 2026-05-07 10:26 | -10.67126 | -67.65682 | 36965 ft | 474 kts | 166° |
| 2026-05-07 10:26 | -10.73438 | -67.63744 | 36963 ft | 474 kts | 166° |
| 2026-05-07 10:27 | -10.79748 | -67.61806 | 36959 ft | 474 kts | 166° |
| 2026-05-07 10:27 | -10.86064 | -67.59862 | 36960 ft | 474 kts | 166° |
| 2026-05-07 10:28 | -10.92373 | -67.57919 | 36963 ft | 474 kts | 166° |
| 2026-05-07 10:28 | -10.98682 | -67.55974 | 36963 ft | 474 kts | 166° |
| 2026-05-07 10:29 | -11.04991 | -67.54028 | 36960 ft | 474 kts | 165° |
| 2026-05-07 10:29 | -11.11303 | -67.52081 | 36961 ft | 473 kts | 165° |
| 2026-05-07 10:30 | -11.20703 | -67.49179 | 36958 ft | 473 kts | 166° |
| 2026-05-07 10:30 | -11.27008 | -67.47232 | 36958 ft | 473 kts | 166° |
| 2026-05-07 10:31 | -11.33307 | -67.45286 | 36957 ft | 473 kts | 166° |
| 2026-05-07 10:31 | -11.39605 | -67.43339 | 36957 ft | 473 kts | 166° |
| 2026-05-07 10:32 | -11.45897 | -67.41393 | 36955 ft | 473 kts | 166° |
| 2026-05-07 10:32 | -11.52197 | -67.39444 | 36955 ft | 473 kts | 166° |
| 2026-05-07 10:33 | -11.58497 | -67.37494 | 36955 ft | 474 kts | 166° |
| 2026-05-07 10:33 | -11.64811 | -67.35539 | 36955 ft | 474 kts | 166° |
| 2026-05-07 10:34 | -11.71118 | -67.33585 | 36953 ft | 474 kts | 166° |
| 2026-05-07 10:34 | -11.77422 | -67.31630 | 36951 ft | 474 kts | 166° |
| 2026-05-07 10:35 | -11.83731 | -67.29673 | 36949 ft | 474 kts | 166° |
| 2026-05-07 10:35 | -11.90043 | -67.27715 | 36950 ft | 474 kts | 166° |
| 2026-05-07 10:36 | -11.96355 | -67.25756 | 36946 ft | 474 kts | 166° |
| 2026-05-07 10:36 | -12.02670 | -67.23794 | 36948 ft | 474 kts | 166° |
| 2026-05-07 10:37 | -12.08937 | -67.21846 | 36946 ft | 474 kts | 166° |
| 2026-05-07 10:37 | -12.15263 | -67.19880 | 36946 ft | 475 kts | 166° |
| 2026-05-07 10:38 | -12.21594 | -67.17911 | 36944 ft | 476 kts | 166° |
| 2026-05-07 10:38 | -12.27927 | -67.15939 | 36944 ft | 476 kts | 166° |
| 2026-05-07 10:39 | -12.34272 | -67.13964 | 36941 ft | 476 kts | 166° |
| 2026-05-07 10:39 | -12.40607 | -67.11990 | 36941 ft | 476 kts | 166° |
| 2026-05-07 10:40 | -12.46922 | -67.10022 | 36937 ft | 476 kts | 166° |
| 2026-05-07 10:40 | -12.53260 | -67.08045 | 36938 ft | 475 kts | 166° |
| 2026-05-07 10:41 | -12.59574 | -67.06075 | 36941 ft | 474 kts | 166° |
| 2026-05-07 10:41 | -12.65886 | -67.04104 | 36941 ft | 474 kts | 166° |
| 2026-05-07 10:42 | -12.72198 | -67.02133 | 36939 ft | 474 kts | 166° |
| 2026-05-07 10:42 | -12.77452 | -67.00492 | 36939 ft | 474 kts | 166° |
| 2026-05-07 10:43 | -12.83773 | -66.98515 | 36938 ft | 475 kts | 166° |
| 2026-05-07 10:43 | -12.90099 | -66.96537 | 36933 ft | 475 kts | 166° |
| 2026-05-07 10:44 | -12.96378 | -66.94571 | 36932 ft | 475 kts | 166° |
| 2026-05-07 10:44 | -13.02701 | -66.92591 | 36933 ft | 475 kts | 166° |
| 2026-05-07 10:45 | -13.09034 | -66.90609 | 36933 ft | 475 kts | 166° |
| 2026-05-07 10:45 | -13.15368 | -66.88648 | 36934 ft | 475 kts | 166° |
| 2026-05-07 10:46 | -13.21705 | -66.86696 | 36933 ft | 476 kts | 166° |
| 2026-05-07 10:46 | -13.28053 | -66.84739 | 36933 ft | 476 kts | 166° |
| 2026-05-07 10:47 | -13.34396 | -66.82780 | 36930 ft | 476 kts | 166° |
| 2026-05-07 10:47 | -13.40735 | -66.80820 | 36928 ft | 476 kts | 166° |
| 2026-05-07 10:48 | -13.47034 | -66.78872 | 36931 ft | 475 kts | 166° |
| 2026-05-07 10:48 | -13.53353 | -66.76915 | 36922 ft | 474 kts | 166° |
| 2026-05-07 10:49 | -13.59669 | -66.74959 | 36925 ft | 473 kts | 166° |
| 2026-05-07 10:49 | -13.65980 | -66.73004 | 36922 ft | 473 kts | 166° |
| 2026-05-07 10:50 | -13.72290 | -66.71048 | 36923 ft | 473 kts | 166° |
| 2026-05-07 10:50 | -13.78602 | -66.69090 | 36918 ft | 473 kts | 166° |
| 2026-05-07 10:51 | -13.84902 | -66.67134 | 36918 ft | 472 kts | 166° |
| 2026-05-07 10:51 | -13.91197 | -66.65180 | 36920 ft | 472 kts | 166° |
| 2026-05-07 10:52 | -13.97491 | -66.63224 | 36918 ft | 472 kts | 166° |
| 2026-05-07 10:52 | -14.03789 | -66.61266 | 36916 ft | 472 kts | 166° |
| 2026-05-07 10:53 | -14.10081 | -66.59309 | 36919 ft | 472 kts | 166° |
| 2026-05-07 10:53 | -14.16375 | -66.57350 | 36918 ft | 472 kts | 166° |
| 2026-05-07 10:54 | -14.22662 | -66.55392 | 36916 ft | 471 kts | 166° |
| 2026-05-07 10:54 | -14.28893 | -66.53450 | 36917 ft | 470 kts | 166° |
| 2026-05-07 10:55 | -14.35160 | -66.51496 | 36921 ft | 470 kts | 166° |
| 2026-05-07 10:55 | -14.41414 | -66.49545 | 36919 ft | 470 kts | 166° |
| 2026-05-07 10:56 | -14.47685 | -66.47588 | 36916 ft | 471 kts | 166° |
| 2026-05-07 10:56 | -14.53958 | -66.45629 | 36912 ft | 471 kts | 166° |
| 2026-05-07 10:57 | -14.60236 | -66.43669 | 36915 ft | 471 kts | 166° |
| 2026-05-07 10:57 | -14.66509 | -66.41713 | 36915 ft | 471 kts | 166° |
| 2026-05-07 10:58 | -14.72781 | -66.39755 | 36921 ft | 471 kts | 166° |
| 2026-05-07 10:58 | -14.79027 | -66.37805 | 36915 ft | 472 kts | 166° |
| 2026-05-07 10:59 | -14.85322 | -66.35837 | 36918 ft | 472 kts | 166° |
| 2026-05-07 10:59 | -14.91624 | -66.33867 | 36910 ft | 472 kts | 166° |
| 2026-05-07 11:00 | -14.97918 | -66.31897 | 36913 ft | 472 kts | 167° |
| 2026-05-07 11:00 | -15.04212 | -66.29926 | 36927 ft | 472 kts | 167° |
| 2026-05-07 11:01 | -15.10515 | -66.27952 | 36918 ft | 474 kts | 167° |
| 2026-05-07 11:01 | -15.16827 | -66.25973 | 36931 ft | 474 kts | 167° |
| 2026-05-07 11:02 | -15.23139 | -66.23993 | 36932 ft | 474 kts | 167° |
| 2026-05-07 11:02 | -15.29444 | -66.22014 | 36940 ft | 473 kts | 167° |
| 2026-05-07 11:03 | -15.35739 | -66.20036 | 36948 ft | 473 kts | 167° |
| 2026-05-07 11:03 | -15.42035 | -66.18058 | 36957 ft | 473 kts | 167° |
| 2026-05-07 11:04 | -15.48295 | -66.16105 | 36954 ft | 473 kts | 167° |
| 2026-05-07 11:04 | -15.54611 | -66.14156 | 36969 ft | 473 kts | 167° |
| 2026-05-07 11:05 | -15.60923 | -66.12210 | 36962 ft | 473 kts | 167° |
| 2026-05-07 11:05 | -15.67236 | -66.10259 | 36983 ft | 473 kts | 167° |
| 2026-05-07 11:06 | -15.73552 | -66.08305 | 36977 ft | 474 kts | 167° |
| 2026-05-07 11:06 | -15.79871 | -66.06348 | 36986 ft | 474 kts | 167° |
| 2026-05-07 11:07 | -15.86206 | -66.04384 | 36986 ft | 474 kts | 167° |
| 2026-05-07 11:07 | -15.92529 | -66.02423 | 37006 ft | 474 kts | 167° |
| 2026-05-07 11:08 | -15.98859 | -66.00459 | 37006 ft | 474 kts | 167° |
| 2026-05-07 11:08 | -16.05199 | -65.98491 | 37003 ft | 476 kts | 167° |
| 2026-05-07 11:09 | -16.11545 | -65.96519 | 37014 ft | 476 kts | 167° |
| 2026-05-07 11:09 | -16.17887 | -65.94547 | 37021 ft | 476 kts | 167° |
| 2026-05-07 11:10 | -16.24188 | -65.92586 | 37025 ft | 476 kts | 167° |
| 2026-05-07 11:10 | -16.30526 | -65.90613 | 37055 ft | 475 kts | 167° |
| 2026-05-07 11:11 | -16.36867 | -65.88638 | 37057 ft | 475 kts | 167° |
| 2026-05-07 11:11 | -16.43209 | -65.86660 | 37067 ft | 475 kts | 167° |
| 2026-05-07 11:12 | -16.49557 | -65.84680 | 37068 ft | 475 kts | 167° |
| 2026-05-07 11:12 | -16.55897 | -65.82701 | 37092 ft | 475 kts | 167° |
| 2026-05-07 11:13 | -16.62236 | -65.80720 | 37093 ft | 475 kts | 167° |
| 2026-05-07 11:13 | -16.68574 | -65.78738 | 37120 ft | 475 kts | 167° |
| 2026-05-07 11:14 | -16.74907 | -65.76758 | 37113 ft | 473 kts | 167° |
| 2026-05-07 11:14 | -16.81123 | -65.74776 | 37145 ft | 465 kts | 164° |
| 2026-05-07 11:15 | -16.86988 | -65.71869 | 37112 ft | 469 kts | 155° |
| 2026-05-07 11:15 | -16.92673 | -65.68496 | 37146 ft | 471 kts | 154° |
| 2026-05-07 11:16 | -16.98307 | -65.65040 | 37142 ft | 473 kts | 154° |
| 2026-05-07 11:16 | -17.03985 | -65.61558 | 37148 ft | 473 kts | 154° |
| 2026-05-07 11:17 | -17.09660 | -65.58095 | 37108 ft | 471 kts | 154° |
| 2026-05-07 11:17 | -17.15323 | -65.54657 | 37149 ft | 470 kts | 154° |
| 2026-05-07 11:18 | -17.20986 | -65.51226 | 37145 ft | 470 kts | 154° |
| 2026-05-07 11:18 | -17.26651 | -65.47792 | 37146 ft | 470 kts | 154° |
| 2026-05-07 11:19 | -17.32316 | -65.44352 | 37144 ft | 470 kts | 154° |
| 2026-05-07 11:19 | -17.37974 | -65.40915 | 37176 ft | 470 kts | 154° |
| 2026-05-07 11:20 | -17.43628 | -65.37476 | 37177 ft | 470 kts | 154° |
| 2026-05-07 11:20 | -17.49293 | -65.34031 | 37182 ft | 470 kts | 154° |
| 2026-05-07 11:21 | -17.54926 | -65.30606 | 37173 ft | 472 kts | 154° |
| 2026-05-07 11:21 | -17.60608 | -65.27160 | 37155 ft | 472 kts | 154° |
| 2026-05-07 11:22 | -17.66294 | -65.23709 | 37161 ft | 471 kts | 154° |
| 2026-05-07 11:22 | -17.71967 | -65.20277 | 37143 ft | 471 kts | 154° |
| 2026-05-07 11:23 | -17.77655 | -65.16842 | 37131 ft | 472 kts | 154° |
| 2026-05-07 11:23 | -17.83357 | -65.13395 | 37133 ft | 474 kts | 155° |
| 2026-05-07 11:24 | -17.89066 | -65.09941 | 37104 ft | 474 kts | 155° |
| 2026-05-07 11:24 | -17.94774 | -65.06484 | 37102 ft | 473 kts | 155° |
| 2026-05-07 11:25 | -18.00479 | -65.03025 | 37074 ft | 474 kts | 155° |
| 2026-05-07 11:25 | -18.06192 | -64.99558 | 37075 ft | 474 kts | 155° |
| 2026-05-07 11:26 | -18.10943 | -64.96675 | 37050 ft | 475 kts | 155° |
| 2026-05-07 11:26 | -18.17596 | -64.92634 | 37050 ft | 474 kts | 155° |
| 2026-05-07 11:27 | -18.23306 | -64.89161 | 37039 ft | 474 kts | 155° |
| 2026-05-07 11:27 | -18.28085 | -64.86251 | 37042 ft | 474 kts | 155° |
| 2026-05-07 11:28 | -18.33767 | -64.82790 | 37031 ft | 474 kts | 155° |
| 2026-05-07 11:28 | -18.39488 | -64.79307 | 37039 ft | 476 kts | 155° |
| 2026-05-07 11:29 | -18.45230 | -64.75807 | 37018 ft | 478 kts | 155° |
| 2026-05-07 11:29 | -18.51002 | -64.72288 | 37000 ft | 479 kts | 155° |
| 2026-05-07 11:30 | -18.56762 | -64.68762 | 37004 ft | 479 kts | 155° |
| 2026-05-07 11:30 | -18.62516 | -64.65251 | 37009 ft | 478 kts | 155° |
| 2026-05-07 11:31 | -18.68292 | -64.61767 | 36986 ft | 478 kts | 155° |
| 2026-05-07 11:31 | -18.74029 | -64.58296 | 36966 ft | 477 kts | 155° |
| 2026-05-07 11:32 | -18.82657 | -64.53056 | 36952 ft | 477 kts | 155° |
| 2026-05-07 11:33 | -18.88422 | -64.49549 | 36943 ft | 478 kts | 155° |
| 2026-05-07 11:33 | -18.94190 | -64.46044 | 36920 ft | 478 kts | 156° |
| 2026-05-07 11:34 | -18.99973 | -64.42548 | 36893 ft | 479 kts | 156° |
| 2026-05-07 11:34 | -19.05767 | -64.39045 | 36894 ft | 479 kts | 156° |
| 2026-05-07 11:35 | -19.11550 | -64.35543 | 36842 ft | 479 kts | 156° |
| 2026-05-07 11:35 | -19.17329 | -64.32044 | 36840 ft | 479 kts | 156° |
| 2026-05-07 11:36 | -19.23111 | -64.28538 | 36824 ft | 479 kts | 156° |
| 2026-05-07 11:36 | -19.28908 | -64.25022 | 36823 ft | 481 kts | 156° |
| 2026-05-07 11:37 | -19.34723 | -64.21492 | 36792 ft | 481 kts | 156° |
| 2026-05-07 11:37 | -19.40498 | -64.17981 | 36788 ft | 482 kts | 156° |
| 2026-05-07 11:38 | -19.46325 | -64.14435 | 36783 ft | 482 kts | 156° |
| 2026-05-07 11:38 | -19.52147 | -64.10892 | 36781 ft | 482 kts | 156° |
| 2026-05-07 11:39 | -19.57950 | -64.07351 | 36763 ft | 481 kts | 156° |
| 2026-05-07 11:39 | -19.63740 | -64.03794 | 36761 ft | 480 kts | 156° |
| 2026-05-07 11:40 | -19.69502 | -64.00282 | 36766 ft | 480 kts | 156° |
| 2026-05-07 11:40 | -19.75310 | -63.96755 | 36770 ft | 481 kts | 156° |
| 2026-05-07 11:41 | -19.81121 | -63.93233 | 36764 ft | 481 kts | 156° |
| 2026-05-07 11:41 | -19.86920 | -63.89712 | 36763 ft | 480 kts | 156° |
| 2026-05-07 11:42 | -19.92724 | -63.86185 | 36768 ft | 480 kts | 156° |
| 2026-05-07 11:42 | -19.98521 | -63.82667 | 36766 ft | 480 kts | 156° |
| 2026-05-07 11:43 | -20.04318 | -63.79144 | 36766 ft | 480 kts | 156° |
| 2026-05-07 11:43 | -20.10125 | -63.75639 | 36758 ft | 480 kts | 156° |
| 2026-05-07 11:44 | -20.15936 | -63.72144 | 36790 ft | 479 kts | 156° |
| 2026-05-07 11:44 | -20.21744 | -63.68645 | 36782 ft | 479 kts | 156° |
| 2026-05-07 11:45 | -20.27544 | -63.65145 | 36775 ft | 479 kts | 156° |
| 2026-05-07 11:45 | -20.33347 | -63.61641 | 36758 ft | 479 kts | 156° |
| 2026-05-07 11:46 | -20.39153 | -63.58131 | 36745 ft | 479 kts | 156° |
| 2026-05-07 11:46 | -20.44918 | -63.54637 | 36734 ft | 479 kts | 156° |
| 2026-05-07 11:47 | -20.50721 | -63.51123 | 36737 ft | 479 kts | 156° |
| 2026-05-07 11:47 | -20.56525 | -63.47610 | 36723 ft | 479 kts | 156° |
| 2026-05-07 11:48 | -20.62326 | -63.44091 | 36725 ft | 480 kts | 156° |
| 2026-05-07 11:48 | -20.68131 | -63.40573 | 36709 ft | 479 kts | 156° |
| 2026-05-07 11:49 | -20.73925 | -63.37049 | 36702 ft | 479 kts | 156° |
| 2026-05-07 11:49 | -20.79714 | -63.33523 | 36684 ft | 479 kts | 156° |
| 2026-05-07 11:50 | -20.85510 | -63.29995 | 36685 ft | 479 kts | 156° |
| 2026-05-07 11:50 | -20.91312 | -63.26462 | 36679 ft | 481 kts | 157° |
| 2026-05-07 11:51 | -20.97142 | -63.22908 | 36670 ft | 482 kts | 157° |
| 2026-05-07 11:51 | -21.02939 | -63.19369 | 36664 ft | 483 kts | 156° |
| 2026-05-07 11:52 | -21.08766 | -63.15807 | 36654 ft | 483 kts | 156° |
| 2026-05-07 11:52 | -21.14597 | -63.12241 | 36656 ft | 482 kts | 157° |
| 2026-05-07 11:53 | -21.20435 | -63.08667 | 36646 ft | 483 kts | 157° |
| 2026-05-07 11:53 | -21.26269 | -63.05093 | 36649 ft | 483 kts | 157° |
| 2026-05-07 11:54 | -21.32111 | -63.01556 | 36646 ft | 481 kts | 158° |
| 2026-05-07 11:54 | -21.38054 | -62.98257 | 36646 ft | 480 kts | 160° |
| 2026-05-07 11:55 | -21.44021 | -62.95039 | 36643 ft | 481 kts | 160° |
| 2026-05-07 11:55 | -21.50001 | -62.91794 | 36642 ft | 482 kts | 160° |
| 2026-05-07 11:56 | -21.55941 | -62.88541 | 36639 ft | 482 kts | 159° |
| 2026-05-07 11:56 | -21.61921 | -62.85254 | 36636 ft | 482 kts | 159° |
| 2026-05-07 11:57 | -21.67898 | -62.81965 | 36649 ft | 482 kts | 159° |
| 2026-05-07 11:57 | -21.73882 | -62.78670 | 36633 ft | 484 kts | 159° |
| 2026-05-07 11:58 | -21.79874 | -62.75369 | 36637 ft | 484 kts | 159° |
| 2026-05-07 11:58 | -21.85870 | -62.72062 | 36637 ft | 484 kts | 159° |
| 2026-05-07 11:59 | -21.91875 | -62.68746 | 36639 ft | 484 kts | 159° |
| 2026-05-07 11:59 | -21.97879 | -62.65429 | 36639 ft | 485 kts | 160° |
| 2026-05-07 12:00 | -22.03903 | -62.62099 | 36639 ft | 487 kts | 160° |
| 2026-05-07 12:00 | -22.09939 | -62.58758 | 36642 ft | 488 kts | 160° |
| 2026-05-07 12:01 | -22.15973 | -62.55412 | 36641 ft | 488 kts | 160° |
| 2026-05-07 12:01 | -22.22003 | -62.52067 | 36643 ft | 488 kts | 160° |
| 2026-05-07 12:02 | -22.28015 | -62.48729 | 36639 ft | 489 kts | 160° |
| 2026-05-07 12:02 | -22.34078 | -62.45361 | 36639 ft | 490 kts | 160° |
| 2026-05-07 12:03 | -22.40133 | -62.41988 | 36640 ft | 490 kts | 159° |
| 2026-05-07 12:03 | -22.46103 | -62.38367 | 36642 ft | 493 kts | 156° |
| 2026-05-07 12:04 | -22.52025 | -62.34579 | 36642 ft | 497 kts | 156° |
| 2026-05-07 12:04 | -22.57989 | -62.30765 | 36642 ft | 499 kts | 156° |
| 2026-05-07 12:05 | -22.63984 | -62.26955 | 36645 ft | 499 kts | 157° |
| 2026-05-07 12:05 | -22.69978 | -62.23158 | 36646 ft | 499 kts | 157° |
| 2026-05-07 12:06 | -22.75959 | -62.19369 | 36644 ft | 497 kts | 156° |
| 2026-05-07 12:06 | -22.81897 | -62.15603 | 36646 ft | 496 kts | 156° |
| 2026-05-07 12:07 | -22.87850 | -62.11824 | 36644 ft | 496 kts | 156° |
| 2026-05-07 12:07 | -22.93805 | -62.08040 | 36643 ft | 496 kts | 156° |
| 2026-05-07 12:08 | -22.99761 | -62.04251 | 36666 ft | 497 kts | 157° |
| 2026-05-07 12:08 | -23.05755 | -62.00436 | 36648 ft | 501 kts | 157° |
| 2026-05-07 12:09 | -23.11768 | -61.96602 | 36642 ft | 501 kts | 157° |
| 2026-05-07 12:09 | -23.17785 | -61.92758 | 36642 ft | 501 kts | 157° |
| 2026-05-07 12:10 | -23.23793 | -61.88916 | 36671 ft | 500 kts | 157° |
| 2026-05-07 12:10 | -23.29809 | -61.85069 | 36642 ft | 502 kts | 157° |
| 2026-05-07 12:11 | -23.34827 | -61.81858 | 36641 ft | 504 kts | 157° |
| 2026-05-07 12:11 | -23.41857 | -61.77351 | 36643 ft | 504 kts | 157° |
| 2026-05-07 12:12 | -23.46920 | -61.74100 | 36644 ft | 504 kts | 157° |
| 2026-05-07 12:12 | -23.52934 | -61.70238 | 36644 ft | 506 kts | 157° |
| 2026-05-07 12:13 | -23.59016 | -61.66329 | 36642 ft | 508 kts | 157° |
| 2026-05-07 12:13 | -23.65111 | -61.62404 | 36644 ft | 508 kts | 157° |
| 2026-05-07 12:14 | -23.71197 | -61.58480 | 36646 ft | 508 kts | 157° |
| 2026-05-07 12:14 | -23.77282 | -61.54554 | 36650 ft | 509 kts | 158° |
| 2026-05-07 12:15 | -23.83377 | -61.50618 | 36647 ft | 509 kts | 158° |
| 2026-05-07 12:15 | -23.89477 | -61.46674 | 36644 ft | 509 kts | 158° |
| 2026-05-07 12:16 | -23.95584 | -61.42721 | 36646 ft | 510 kts | 158° |
| 2026-05-07 12:16 | -24.01656 | -61.38785 | 36654 ft | 510 kts | 158° |
| 2026-05-07 12:17 | -24.07766 | -61.34822 | 36647 ft | 511 kts | 158° |
| 2026-05-07 12:17 | -24.13882 | -61.30850 | 36649 ft | 511 kts | 158° |
| 2026-05-07 12:18 | -24.19982 | -61.26839 | 36649 ft | 511 kts | 157° |
| 2026-05-07 12:18 | -24.26078 | -61.22806 | 36655 ft | 512 kts | 158° |
| 2026-05-07 12:19 | -24.32175 | -61.18772 | 36651 ft | 512 kts | 158° |
| 2026-05-07 12:19 | -24.38288 | -61.14727 | 36650 ft | 513 kts | 158° |
| 2026-05-07 12:20 | -24.44392 | -61.10685 | 36649 ft | 513 kts | 158° |
| 2026-05-07 12:20 | -24.50506 | -61.06632 | 36656 ft | 513 kts | 158° |
| 2026-05-07 12:21 | -24.56625 | -61.02573 | 36649 ft | 514 kts | 158° |
| 2026-05-07 12:21 | -24.62740 | -60.98510 | 36651 ft | 513 kts | 158° |
| 2026-05-07 12:22 | -24.68853 | -60.94442 | 36655 ft | 513 kts | 158° |
| 2026-05-07 12:22 | -24.74928 | -60.90395 | 36656 ft | 514 kts | 158° |
| 2026-05-07 12:23 | -24.81063 | -60.86306 | 36655 ft | 516 kts | 158° |
| 2026-05-07 12:23 | -24.87208 | -60.82205 | 36653 ft | 516 kts | 158° |
| 2026-05-07 12:24 | -24.93350 | -60.78105 | 36653 ft | 516 kts | 158° |
| 2026-05-07 12:24 | -24.99501 | -60.74031 | 36634 ft | 516 kts | 158° |
| 2026-05-07 12:25 | -25.05683 | -60.69947 | 36658 ft | 518 kts | 158° |
| 2026-05-07 12:25 | -25.11858 | -60.65857 | 36659 ft | 518 kts | 158° |
| 2026-05-07 12:26 | -25.18029 | -60.61762 | 36663 ft | 518 kts | 158° |
| 2026-05-07 12:26 | -25.24206 | -60.57657 | 36655 ft | 518 kts | 158° |
| 2026-05-07 12:27 | -25.30376 | -60.53552 | 36660 ft | 518 kts | 158° |
| 2026-05-07 12:27 | -25.36547 | -60.49441 | 36650 ft | 518 kts | 158° |
| 2026-05-07 12:28 | -25.42719 | -60.45325 | 36647 ft | 518 kts | 158° |
| 2026-05-07 12:28 | -25.48892 | -60.41206 | 36661 ft | 519 kts | 158° |
| 2026-05-07 12:29 | -25.55050 | -60.37090 | 36661 ft | 520 kts | 158° |
| 2026-05-07 12:29 | -25.61245 | -60.32941 | 36661 ft | 520 kts | 158° |
| 2026-05-07 12:30 | -25.67445 | -60.28786 | 36697 ft | 520 kts | 158° |
| 2026-05-07 12:30 | -25.73650 | -60.24623 | 36661 ft | 522 kts | 158° |
| 2026-05-07 12:31 | -25.79868 | -60.20447 | 36664 ft | 523 kts | 158° |
| 2026-05-07 12:31 | -25.86086 | -60.16263 | 36646 ft | 522 kts | 158° |
| 2026-05-07 12:32 | -25.92290 | -60.12083 | 36678 ft | 522 kts | 158° |
| 2026-05-07 12:32 | -25.98509 | -60.07891 | 36663 ft | 523 kts | 158° |
| 2026-05-07 12:33 | -26.07848 | -60.01584 | 36663 ft | 524 kts | 158° |
| 2026-05-07 12:33 | -26.14078 | -59.97369 | 36703 ft | 524 kts | 158° |
| 2026-05-07 12:34 | -26.20322 | -59.93141 | 36667 ft | 527 kts | 158° |
| 2026-05-07 12:34 | -26.26549 | -59.88918 | 36667 ft | 528 kts | 158° |
| 2026-05-07 12:35 | -26.32814 | -59.84661 | 36667 ft | 527 kts | 158° |
| 2026-05-07 12:35 | -26.39083 | -59.80397 | 36681 ft | 527 kts | 158° |
| 2026-05-07 12:36 | -26.45361 | -59.76125 | 36671 ft | 529 kts | 158° |
| 2026-05-07 12:36 | -26.51654 | -59.71835 | 36671 ft | 530 kts | 158° |
| 2026-05-07 12:37 | -26.57947 | -59.67538 | 36676 ft | 529 kts | 158° |
| 2026-05-07 12:37 | -26.64235 | -59.63238 | 36678 ft | 529 kts | 158° |
| 2026-05-07 12:38 | -26.70512 | -59.58943 | 36665 ft | 529 kts | 158° |
| 2026-05-07 12:38 | -26.76741 | -59.54664 | 36684 ft | 529 kts | 157° |
| 2026-05-07 12:39 | -26.82973 | -59.50239 | 36717 ft | 530 kts | 156° |
| 2026-05-07 12:39 | -26.89186 | -59.45766 | 36683 ft | 532 kts | 156° |
| 2026-05-07 12:40 | -26.95413 | -59.41283 | 36686 ft | 532 kts | 156° |
| 2026-05-07 12:40 | -27.01645 | -59.36803 | 36689 ft | 532 kts | 156° |
| 2026-05-07 12:41 | -27.07882 | -59.32320 | 36691 ft | 532 kts | 156° |
| 2026-05-07 12:41 | -27.14122 | -59.27829 | 36690 ft | 532 kts | 156° |
| 2026-05-07 12:42 | -27.20345 | -59.23343 | 36694 ft | 531 kts | 156° |
| 2026-05-07 12:42 | -27.26539 | -59.18872 | 36706 ft | 531 kts | 156° |
| 2026-05-07 12:43 | -27.32769 | -59.14372 | 36699 ft | 533 kts | 155° |
| 2026-05-07 12:43 | -27.39011 | -59.09855 | 36691 ft | 533 kts | 155° |
| 2026-05-07 12:44 | -27.45344 | -59.05570 | 36700 ft | 522 kts | 164° |
| 2026-05-07 12:44 | -27.51940 | -59.02166 | 36673 ft | 519 kts | 166° |
| 2026-05-07 12:45 | -27.58558 | -58.98942 | 36689 ft | 518 kts | 167° |
| 2026-05-07 12:45 | -27.65179 | -58.95749 | 36691 ft | 517 kts | 167° |
| 2026-05-07 12:46 | -27.71794 | -58.92540 | 36719 ft | 518 kts | 166° |
| 2026-05-07 12:46 | -27.78421 | -58.89308 | 36679 ft | 518 kts | 166° |
| 2026-05-07 12:47 | -27.84990 | -58.86095 | 36680 ft | 518 kts | 166° |
| 2026-05-07 12:47 | -27.91605 | -58.82854 | 36681 ft | 518 kts | 166° |
| 2026-05-07 12:48 | -27.98215 | -58.79613 | 36686 ft | 518 kts | 166° |
| 2026-05-07 12:48 | -28.04828 | -58.76366 | 36680 ft | 517 kts | 166° |
| 2026-05-07 12:49 | -28.11444 | -58.73114 | 36675 ft | 517 kts | 166° |
| 2026-05-07 12:49 | -28.18046 | -58.69864 | 36694 ft | 517 kts | 166° |
| 2026-05-07 12:50 | -28.24619 | -58.66620 | 36672 ft | 513 kts | 166° |
| 2026-05-07 12:50 | -28.31154 | -58.63394 | 36661 ft | 512 kts | 166° |
| 2026-05-07 12:51 | -28.37647 | -58.60187 | 36653 ft | 512 kts | 166° |
| 2026-05-07 12:51 | -28.44174 | -58.56956 | 36649 ft | 508 kts | 166° |
| 2026-05-07 12:52 | -28.50642 | -58.53746 | 36649 ft | 505 kts | 166° |
| 2026-05-07 12:52 | -28.57084 | -58.50550 | 36641 ft | 505 kts | 166° |
| 2026-05-07 12:53 | -28.63527 | -58.47350 | 36620 ft | 504 kts | 165° |
| 2026-05-07 12:53 | -28.69904 | -58.44154 | 36641 ft | 498 kts | 166° |
| 2026-05-07 12:54 | -28.76199 | -58.40993 | 36636 ft | 497 kts | 166° |
| 2026-05-07 12:54 | -28.82540 | -58.37811 | 36633 ft | 497 kts | 166° |
| 2026-05-07 12:55 | -28.87787 | -58.35171 | 36637 ft | 492 kts | 165° |
| 2026-05-07 12:55 | -28.93997 | -58.32037 | 36636 ft | 486 kts | 165° |
| 2026-05-07 12:56 | -29.00178 | -58.28923 | 36638 ft | 485 kts | 165° |
| 2026-05-07 12:56 | -29.06363 | -58.25806 | 36662 ft | 485 kts | 164° |
| 2026-05-07 12:57 | -29.12484 | -58.22709 | 36640 ft | 477 kts | 163° |
| 2026-05-07 12:57 | -29.18532 | -58.19646 | 36627 ft | 475 kts | 164° |
| 2026-05-07 12:58 | -29.24592 | -58.16581 | 36658 ft | 477 kts | 164° |
| 2026-05-07 12:58 | -29.30662 | -58.13504 | 36762 ft | 476 kts | 162° |
| 2026-05-07 12:59 | -29.33695 | -58.11963 | 36916 ft | 478 kts | 162° |
| 2026-05-07 12:59 | -29.36743 | -58.10415 | 37055 ft | 481 kts | 162° |
| 2026-05-07 12:59 | -29.39811 | -58.08856 | 37262 ft | 482 kts | 162° |
| 2026-05-07 12:59 | -29.42873 | -58.07288 | 37538 ft | 482 kts | 162° |
| 2026-05-07 13:00 | -29.45924 | -58.05695 | 37824 ft | 481 kts | 161° |
| 2026-05-07 13:00 | -29.48964 | -58.04089 | 38101 ft | 480 kts | 161° |
| 2026-05-07 13:00 | -29.51963 | -58.02499 | 38221 ft | 483 kts | 160° |
| 2026-05-07 13:00 | -29.55035 | -58.00871 | 38227 ft | 488 kts | 160° |
| 2026-05-07 13:01 | -29.58128 | -57.99230 | 38435 ft | 488 kts | 160° |
| 2026-05-07 13:01 | -29.61207 | -57.97596 | 38625 ft | 488 kts | 160° |
| 2026-05-07 13:01 | -29.67373 | -57.94390 | 38686 ft | 484 kts | 161° |
| 2026-05-07 13:02 | -29.73533 | -57.91243 | 38680 ft | 482 kts | 161° |
| 2026-05-07 13:02 | -29.79644 | -57.88118 | 38688 ft | 479 kts | 161° |
| 2026-05-07 13:03 | -29.85692 | -57.85015 | 38692 ft | 478 kts | 161° |
| 2026-05-07 13:03 | -29.91776 | -57.81886 | 38691 ft | 479 kts | 161° |
| 2026-05-07 13:04 | -29.97889 | -57.78740 | 38699 ft | 485 kts | 160° |
| 2026-05-07 13:04 | -30.04086 | -57.75545 | 38695 ft | 488 kts | 160° |
| 2026-05-07 13:05 | -30.10285 | -57.72339 | 38698 ft | 488 kts | 160° |
| 2026-05-07 13:05 | -30.16491 | -57.69126 | 38700 ft | 490 kts | 159° |
| 2026-05-07 13:06 | -30.22756 | -57.65882 | 38698 ft | 495 kts | 159° |
| 2026-05-07 13:06 | -30.29152 | -57.63007 | 38693 ft | 490 kts | 166° |
| 2026-05-07 13:07 | -30.35638 | -57.60605 | 38700 ft | 489 kts | 167° |
| 2026-05-07 13:07 | -30.42111 | -57.58300 | 38695 ft | 491 kts | 167° |
| 2026-05-07 13:08 | -30.48651 | -57.55976 | 38691 ft | 492 kts | 167° |
| 2026-05-07 13:08 | -30.54980 | -57.53713 | 38694 ft | 491 kts | 167° |
| 2026-05-07 13:09 | -30.61533 | -57.51359 | 38688 ft | 495 kts | 166° |
| 2026-05-07 13:09 | -30.68146 | -57.48980 | 38685 ft | 499 kts | 166° |
| 2026-05-07 13:10 | -30.74782 | -57.46587 | 38680 ft | 499 kts | 166° |
| 2026-05-07 13:10 | -30.81431 | -57.44186 | 38681 ft | 500 kts | 166° |
| 2026-05-07 13:11 | -30.88093 | -57.41782 | 38681 ft | 502 kts | 165° |
| 2026-05-07 13:11 | -30.94770 | -57.39369 | 38679 ft | 502 kts | 165° |
| 2026-05-07 13:12 | -31.01410 | -57.36965 | 38688 ft | 502 kts | 166° |
| 2026-05-07 13:12 | -31.08080 | -57.34547 | 38673 ft | 502 kts | 166° |
| 2026-05-07 13:13 | -31.14776 | -57.32118 | 38670 ft | 502 kts | 166° |
| 2026-05-07 13:13 | -31.21454 | -57.29692 | 38694 ft | 502 kts | 165° |
| 2026-05-07 13:14 | -31.28152 | -57.27255 | 38672 ft | 506 kts | 165° |
| 2026-05-07 13:14 | -31.34854 | -57.24813 | 38670 ft | 508 kts | 165° |
| 2026-05-07 13:15 | -31.41613 | -57.22345 | 38672 ft | 508 kts | 165° |
| 2026-05-07 13:15 | -31.48367 | -57.19877 | 38669 ft | 509 kts | 164° |
| 2026-05-07 13:16 | -31.55135 | -57.17399 | 38664 ft | 510 kts | 164° |
| 2026-05-07 13:16 | -31.61913 | -57.14913 | 38672 ft | 510 kts | 164° |
| 2026-05-07 13:17 | -31.68651 | -57.12439 | 38664 ft | 511 kts | 163° |
| 2026-05-07 13:17 | -31.75451 | -57.09938 | 38661 ft | 512 kts | 165° |
| 2026-05-07 13:18 | -31.82228 | -57.07419 | 38667 ft | 509 kts | 164° |
| 2026-05-07 13:18 | -31.88968 | -57.04860 | 38661 ft | 509 kts | 164° |
| 2026-05-07 13:19 | -31.95721 | -57.02335 | 38668 ft | 509 kts | 165° |
| 2026-05-07 13:19 | -32.02484 | -56.99830 | 38654 ft | 509 kts | 165° |
| 2026-05-07 13:20 | -32.09251 | -56.97321 | 38659 ft | 510 kts | 164° |
| 2026-05-07 13:20 | -32.15993 | -56.94814 | 38652 ft | 510 kts | 164° |
| 2026-05-07 13:21 | -32.22768 | -56.92290 | 38647 ft | 511 kts | 164° |
| 2026-05-07 13:21 | -32.29551 | -56.89756 | 38651 ft | 512 kts | 163° |
| 2026-05-07 13:22 | -32.36389 | -56.87199 | 38642 ft | 516 kts | 163° |
| 2026-05-07 13:22 | -32.43243 | -56.84634 | 38639 ft | 516 kts | 163° |
| 2026-05-07 13:23 | -32.50034 | -56.82088 | 38638 ft | 513 kts | 163° |
| 2026-05-07 13:23 | -32.56834 | -56.79532 | 38634 ft | 512 kts | 163° |
| 2026-05-07 13:24 | -32.63636 | -56.76969 | 38628 ft | 512 kts | 163° |
| 2026-05-07 13:24 | -32.70431 | -56.74403 | 38634 ft | 513 kts | 162° |
| 2026-05-07 13:25 | -32.77227 | -56.71833 | 38628 ft | 517 kts | 162° |
| 2026-05-07 13:25 | -32.84096 | -56.69233 | 38622 ft | 517 kts | 162° |
| 2026-05-07 13:26 | -32.90960 | -56.66630 | 38256 ft | 519 kts | 161° |
| 2026-05-07 13:26 | -32.94402 | -56.65323 | 37659 ft | 519 kts | 162° |
| 2026-05-07 13:26 | -32.97843 | -56.64015 | 37092 ft | 519 kts | 162° |
| 2026-05-07 13:27 | -33.01281 | -56.62707 | 36533 ft | 519 kts | 162° |
| 2026-05-07 13:27 | -33.04720 | -56.61397 | 35966 ft | 519 kts | 162° |
| 2026-05-07 13:27 | -33.08167 | -56.60084 | 35441 ft | 519 kts | 161° |
| 2026-05-07 13:27 | -33.11569 | -56.58787 | 34747 ft | 523 kts | 161° |
| 2026-05-07 13:28 | -33.15052 | -56.57457 | 34090 ft | 525 kts | 162° |
| 2026-05-07 13:28 | -33.18528 | -56.56130 | 33565 ft | 524 kts | 163° |
| 2026-05-07 13:28 | -33.22002 | -56.54805 | 32912 ft | 524 kts | 163° |
| 2026-05-07 13:28 | -33.25485 | -56.53479 | 32220 ft | 525 kts | 163° |
| 2026-05-07 13:29 | -33.28973 | -56.52151 | 31583 ft | 526 kts | 163° |
| 2026-05-07 13:29 | -33.32460 | -56.50822 | 31005 ft | 525 kts | 163° |
| 2026-05-07 13:29 | -33.35943 | -56.49508 | 30486 ft | 522 kts | 164° |
| 2026-05-07 13:29 | -33.39375 | -56.48330 | 29998 ft | 519 kts | 166° |
| 2026-05-07 13:30 | -33.42853 | -56.47222 | 29493 ft | 515 kts | 167° |
| 2026-05-07 13:30 | -33.46318 | -56.46157 | 28943 ft | 512 kts | 167° |
| 2026-05-07 13:30 | -33.49760 | -56.45106 | 28382 ft | 509 kts | 167° |
| 2026-05-07 13:30 | -33.53190 | -56.44053 | 27793 ft | 507 kts | 167° |
| 2026-05-07 13:31 | -33.56596 | -56.42997 | 27314 ft | 503 kts | 167° |
| 2026-05-07 13:31 | -33.59971 | -56.41941 | 26839 ft | 499 kts | 167° |
| 2026-05-07 13:31 | -33.63316 | -56.40887 | 26343 ft | 495 kts | 167° |
| 2026-05-07 13:31 | -33.66637 | -56.39837 | 25857 ft | 492 kts | 167° |
| 2026-05-07 13:32 | -33.69934 | -56.38793 | 25417 ft | 488 kts | 167° |
| 2026-05-07 13:32 | -33.73168 | -56.37767 | 24968 ft | 484 kts | 167° |
| 2026-05-07 13:32 | -33.76419 | -56.36735 | 24541 ft | 480 kts | 167° |
| 2026-05-07 13:32 | -33.79633 | -56.35714 | 24091 ft | 476 kts | 167° |
| 2026-05-07 13:33 | -33.82835 | -56.34697 | 23658 ft | 472 kts | 168° |
| 2026-05-07 13:33 | -33.86001 | -56.33693 | 23228 ft | 469 kts | 168° |
| 2026-05-07 13:33 | -33.89145 | -56.32697 | 22716 ft | 465 kts | 168° |
| 2026-05-07 13:33 | -33.92274 | -56.31706 | 22187 ft | 462 kts | 168° |
| 2026-05-07 13:34 | -33.95332 | -56.30736 | 21674 ft | 458 kts | 169° |
| 2026-05-07 13:34 | -34.01419 | -56.28803 | 20858 ft | 446 kts | 169° |
| 2026-05-07 13:34 | -34.04422 | -56.27849 | 20366 ft | 442 kts | 169° |
| 2026-05-07 13:35 | -34.07391 | -56.26906 | 19895 ft | 439 kts | 170° |
| 2026-05-07 13:35 | -34.10341 | -56.25970 | 19363 ft | 438 kts | 171° |
| 2026-05-07 13:35 | -34.13245 | -56.25047 | 18879 ft | 436 kts | 171° |
| 2026-05-07 13:35 | -34.16165 | -56.24116 | 18453 ft | 432 kts | 172° |
| 2026-05-07 13:36 | -34.19057 | -56.23192 | 18017 ft | 428 kts | 172° |
| 2026-05-07 13:36 | -34.21930 | -56.22274 | 17541 ft | 425 kts | 172° |
| 2026-05-07 13:36 | -34.24493 | -56.21456 | 17120 ft | 421 kts | 172° |
| 2026-05-07 13:36 | -34.27312 | -56.20556 | 16740 ft | 416 kts | 172° |
| 2026-05-07 13:37 | -34.30072 | -56.19671 | 16545 ft | 404 kts | 173° |
| 2026-05-07 13:37 | -34.32737 | -56.18809 | 16321 ft | 387 kts | 172° |
| 2026-05-07 13:37 | -34.35203 | -56.17569 | 16029 ft | 383 kts | 154° |
| 2026-05-07 13:37 | -34.37424 | -56.15858 | 15637 ft | 374 kts | 151° |
| 2026-05-07 13:38 | -34.39552 | -56.14089 | 15176 ft | 368 kts | 149° |
| 2026-05-07 13:38 | -34.41629 | -56.12317 | 14704 ft | 362 kts | 149° |
| 2026-05-07 13:38 | -34.43667 | -56.10565 | 14241 ft | 356 kts | 149° |
| 2026-05-07 13:38 | -34.45648 | -56.08857 | 13779 ft | 351 kts | 147° |
| 2026-05-07 13:39 | -34.47600 | -56.07170 | 13472 ft | 338 kts | 147° |
| 2026-05-07 13:39 | -34.49498 | -56.05530 | 13008 ft | 332 kts | 147° |
| 2026-05-07 13:39 | -34.51369 | -56.03913 | 12426 ft | 329 kts | 147° |
| 2026-05-07 13:39 | -34.53224 | -56.02308 | 11859 ft | 326 kts | 147° |
| 2026-05-07 13:40 | -34.55058 | -56.00720 | 11470 ft | 317 kts | 147° |
| 2026-05-07 13:40 | -34.56810 | -55.99199 | 11280 ft | 303 kts | 147° |
| 2026-05-07 13:40 | -34.58487 | -55.97743 | 11098 ft | 289 kts | 147° |
| 2026-05-07 13:40 | -34.60099 | -55.96343 | 10752 ft | 285 kts | 147° |
| 2026-05-07 13:41 | -34.61749 | -55.94916 | 10162 ft | 297 kts | 147° |
| 2026-05-07 13:41 | -34.63455 | -55.93440 | 9644 ft | 304 kts | 147° |
| 2026-05-07 13:41 | -34.65123 | -55.91854 | 9227 ft | 306 kts | 136° |
| 2026-05-07 13:41 | -34.66305 | -55.89720 | 8822 ft | 307 kts | 110° |
| 2026-05-07 13:42 | -34.66601 | -55.88052 | 8572 ft | 304 kts | 91° |
| 2026-05-07 13:42 | -34.66233 | -55.85571 | 8212 ft | 298 kts | 63° |
| 2026-05-07 13:42 | -34.64996 | -55.83624 | 7858 ft | 290 kts | 36° |
| 2026-05-07 13:42 | -34.63233 | -55.82566 | 7493 ft | 281 kts | 9° |
| 2026-05-07 13:43 | -34.61306 | -55.82579 | 7127 ft | 276 kts | 345° |
| 2026-05-07 13:43 | -34.59574 | -55.83487 | 6857 ft | 270 kts | 326° |
| 2026-05-07 13:43 | -34.58087 | -55.84862 | 6468 ft | 269 kts | 319° |
| 2026-05-07 13:43 | -34.56680 | -55.86368 | 6063 ft | 270 kts | 320° |
| 2026-05-07 13:44 | -34.55242 | -55.87807 | 5752 ft | 267 kts | 320° |
| 2026-05-07 13:44 | -34.53877 | -55.89341 | 5381 ft | 268 kts | 312° |
| 2026-05-07 13:44 | -34.52890 | -55.91249 | 4996 ft | 270 kts | 290° |
| 2026-05-07 13:44 | -34.52657 | -55.93505 | 4686 ft | 272 kts | 267° |
| 2026-05-07 13:45 | -34.53224 | -55.95678 | 4621 ft | 274 kts | 241° |
| 2026-05-07 13:45 | -34.54513 | -55.97376 | 4627 ft | 277 kts | 215° |
| 2026-05-07 13:45 | -34.56308 | -55.98233 | 4626 ft | 280 kts | 187° |
| 2026-05-07 13:45 | -34.58236 | -55.98016 | 4630 ft | 282 kts | 159° |
| 2026-05-07 13:46 | -34.59917 | -55.96879 | 4638 ft | 280 kts | 144° |
| 2026-05-07 13:46 | -34.61469 | -55.95460 | 4635 ft | 278 kts | 141° |
| 2026-05-07 13:46 | -34.62993 | -55.94013 | 4641 ft | 279 kts | 140° |
| 2026-05-07 13:46 | -34.64537 | -55.92552 | 4504 ft | 283 kts | 138° |
| 2026-05-07 13:47 | -34.65857 | -55.90796 | 4260 ft | 278 kts | 124° |
| 2026-05-07 13:47 | -34.67128 | -55.89177 | 4092 ft | 271 kts | 146° |
| 2026-05-07 13:47 | -34.68742 | -55.88061 | 3951 ft | 263 kts | 148° |
| 2026-05-07 13:47 | -34.70285 | -55.86943 | 3877 ft | 254 kts | 149° |
| 2026-05-07 13:48 | -34.71900 | -55.86200 | 3801 ft | 245 kts | 174° |
| 2026-05-07 13:48 | -34.73500 | -55.86550 | 3692 ft | 229 kts | 211° |
| 2026-05-07 13:48 | -34.74646 | -55.87802 | 3373 ft | 218 kts | 232° |
| 2026-05-07 13:48 | -34.75527 | -55.89239 | 3213 ft | 203 kts | 237° |
| 2026-05-07 13:49 | -34.76310 | -55.90576 | 3046 ft | 186 kts | 237° |
| 2026-05-07 13:49 | -34.77035 | -55.91815 | 2829 ft | 174 kts | 237° |
| 2026-05-07 13:49 | -34.77735 | -55.93002 | 2710 ft | 185 kts | 240° |
| 2026-05-07 13:49 | -34.78518 | -55.94389 | 3103 ft | 211 kts | 240° |
| 2026-05-07 13:50 | -34.79367 | -55.95900 | 3049 ft | 222 kts | 239° |
| 2026-05-07 13:50 | -34.80179 | -55.97480 | 3007 ft | 217 kts | 249° |
| 2026-05-07 13:50 | -34.80503 | -55.99224 | 3009 ft | 209 kts | 272° |
| 2026-05-07 13:50 | -34.80167 | -56.00903 | 3005 ft | 204 kts | 300° |
| 2026-05-07 13:51 | -34.79193 | -56.02130 | 3003 ft | 204 kts | 330° |
| 2026-05-07 13:51 | -34.77832 | -56.02550 | 2996 ft | 205 kts | 1° |
| 2026-05-07 13:51 | -34.76480 | -56.02035 | 2996 ft | 207 kts | 26° |
| 2026-05-07 13:51 | -34.75274 | -56.01080 | 3007 ft | 207 kts | 33° |
| 2026-05-07 13:52 | -34.74091 | -56.00051 | 3002 ft | 211 kts | 32° |
| 2026-05-07 13:52 | -34.72898 | -55.99023 | 2994 ft | 210 kts | 33° |
| 2026-05-07 13:52 | -34.71705 | -55.98012 | 2992 ft | 208 kts | 32° |
| 2026-05-07 13:52 | -34.70519 | -55.97016 | 2996 ft | 206 kts | 32° |
| 2026-05-07 13:53 | -34.69338 | -55.96029 | 2989 ft | 206 kts | 32° |
| 2026-05-07 13:53 | -34.68168 | -55.95061 | 2992 ft | 205 kts | 32° |
| 2026-05-07 13:53 | -34.67112 | -55.93888 | 2982 ft | 209 kts | 52° |
| 2026-05-07 13:53 | -34.66600 | -55.92293 | 2988 ft | 201 kts | 79° |
| 2026-05-07 13:54 | -34.66910 | -55.90677 | 2966 ft | 199 kts | 123° |
| 2026-05-07 13:54 | -34.67885 | -55.89491 | 2987 ft | 201 kts | 139° |
| 2026-05-07 13:54 | -34.69002 | -55.88464 | 2993 ft | 201 kts | 143° |
| 2026-05-07 13:54 | -34.70161 | -55.87518 | 2986 ft | 201 kts | 150° |
| 2026-05-07 13:55 | -34.71419 | -55.86761 | 2987 ft | 202 kts | 153° |
| 2026-05-07 13:55 | -34.72666 | -55.85968 | 2987 ft | 202 kts | 152° |
| 2026-05-07 13:55 | -34.73913 | -55.85165 | 2986 ft | 204 kts | 152° |
| 2026-05-07 13:55 | -34.75185 | -55.84384 | 2990 ft | 205 kts | 158° |
| 2026-05-07 13:56 | -34.76565 | -55.84020 | 2989 ft | 202 kts | 177° |
| 2026-05-07 13:56 | -34.77970 | -55.84020 | 2992 ft | 202 kts | 184° |
| 2026-05-07 13:56 | -34.79375 | -55.84125 | 3000 ft | 202 kts | 186° |
| 2026-05-07 13:56 | -34.80790 | -55.84269 | 3020 ft | 205 kts | 187° |
| 2026-05-07 13:57 | -34.82197 | -55.84422 | 3022 ft | 202 kts | 188° |
| 2026-05-07 13:57 | -34.83573 | -55.84575 | 3021 ft | 200 kts | 188° |
| 2026-05-07 13:57 | -34.84958 | -55.84737 | 3018 ft | 199 kts | 188° |
| 2026-05-07 13:57 | -34.86328 | -55.84908 | 3021 ft | 199 kts | 188° |
| 2026-05-07 13:58 | -34.87706 | -55.85066 | 3022 ft | 199 kts | 187° |
| 2026-05-07 13:58 | -34.89080 | -55.85225 | 3023 ft | 198 kts | 187° |
| 2026-05-07 13:58 | -34.90441 | -55.85382 | 3013 ft | 195 kts | 187° |
| 2026-05-07 13:58 | -34.91801 | -55.85541 | 3023 ft | 197 kts | 188° |
| 2026-05-07 13:59 | -34.93165 | -55.85707 | 3016 ft | 199 kts | 188° |
| 2026-05-07 13:59 | -34.94545 | -55.85866 | 3018 ft | 199 kts | 189° |
| 2026-05-07 13:59 | -34.95924 | -55.86027 | 3018 ft | 199 kts | 188° |
| 2026-05-07 13:59 | -34.97293 | -55.86191 | 3014 ft | 197 kts | 187° |
| 2026-05-07 14:00 | -34.98661 | -55.86356 | 3010 ft | 198 kts | 188° |
| 2026-05-07 14:00 | -35.00036 | -55.86520 | 3007 ft | 199 kts | 189° |
| 2026-05-07 14:00 | -35.01401 | -55.86794 | 3007 ft | 199 kts | 197° |
| 2026-05-07 14:00 | -35.02779 | -55.87022 | 3017 ft | 200 kts | 188° |
| 2026-05-07 14:01 | -35.04059 | -55.87508 | 3003 ft | 190 kts | 223° |
| 2026-05-07 14:01 | -35.04703 | -55.88791 | 2990 ft | 174 kts | 262° |
| 2026-05-07 14:01 | -35.04610 | -55.90205 | 3001 ft | 170 kts | 286° |
| 2026-05-07 14:01 | -35.04252 | -55.91567 | 2995 ft | 168 kts | 290° |
| 2026-05-07 14:02 | -35.03849 | -55.92908 | 2994 ft | 169 kts | 292° |
| 2026-05-07 14:02 | -35.03442 | -55.94254 | 2997 ft | 169 kts | 292° |
| 2026-05-07 14:02 | -35.03037 | -55.95602 | 2995 ft | 169 kts | 292° |
| 2026-05-07 14:02 | -35.02636 | -55.96954 | 2996 ft | 169 kts | 292° |
| 2026-05-07 14:03 | -35.02238 | -55.98299 | 2997 ft | 167 kts | 291° |
| 2026-05-07 14:03 | -35.01860 | -55.99579 | 2993 ft | 156 kts | 292° |
| 2026-05-07 14:03 | -35.01400 | -56.00770 | 2905 ft | 154 kts | 302° |
| 2026-05-07 14:03 | -35.00726 | -56.01766 | 2620 ft | 152 kts | 317° |
| 2026-05-07 14:04 | -34.99850 | -56.02477 | 2411 ft | 153 kts | 333° |
| 2026-05-07 14:04 | -34.98829 | -56.02858 | 2315 ft | 155 kts | 348° |
| 2026-05-07 14:04 | -34.97756 | -56.02946 | 2275 ft | 155 kts | 356° |
| 2026-05-07 14:04 | -34.96677 | -56.02953 | 2243 ft | 156 kts | 356° |
| 2026-05-07 14:05 | -34.95596 | -56.02953 | 1993 ft | 155 kts | 355° |
| 2026-05-07 14:05 | -34.94514 | -56.02956 | 1691 ft | 157 kts | 356° |
| 2026-05-07 14:05 | -34.93406 | -56.02966 | 1373 ft | 161 kts | 353° |
| 2026-05-07 14:05 | -34.92296 | -56.02978 | 1354 ft | 160 kts | 354° |
| 2026-05-07 14:06 | -34.91149 | -56.02993 | 1478 ft | 167 kts | 356° |
| 2026-05-07 14:06 | -34.90019 | -56.03004 | 1304 ft | 160 kts | 355° |
| 2026-05-07 14:06 | -34.88923 | -56.03014 | 1033 ft | 155 kts | 355° |
| 2026-05-07 14:06 | -34.87875 | -56.03026 | 812 ft | 149 kts | 356° |
| 2026-05-07 14:07 | -34.86872 | -56.03036 | 650 ft | 141 kts | 357° |
| 2026-05-07 14:07 | -34.85889 | -56.03054 | 480 ft | 141 kts | 1° |
| 2026-05-07 14:07 | -34.84925 | -56.03056 | 325 ft | 136 kts | 354° |
| 2026-05-07 14:07 | -34.83995 | -56.03073 | 101 ft | 130 kts | 355° |
| 2026-05-07 14:08 | -34.83185 | -56.03089 | 82 ft | 93 kts | 0° |
| 2026-05-07 14:08 | -34.82781 | -56.03092 | 64 ft | 41 kts | 359° |
| 2026-05-07 14:08 | -34.82581 | -56.03095 | 65 ft | 15 kts | 359° |
| 2026-05-07 14:08 | -34.82526 | -56.03063 | 60 ft | 9 kts | 58° |
| 2026-05-07 14:09 | -34.82518 | -56.02987 | 63 ft | 9 kts | 90° |
| 2026-05-07 14:09 | -34.82518 | -56.02912 | 63 ft | 8 kts | 93° |
| 2026-05-07 14:09 | -34.82570 | -56.02864 | 61 ft | 14 kts | 172° |
| 2026-05-07 14:09 | -34.82662 | -56.02862 | 67 ft | 12 kts | 179° |
| 2026-05-07 14:10 | -34.82758 | -56.02861 | 64 ft | 17 kts | 179° |
| 2026-05-07 14:10 | -34.82890 | -56.02859 | 69 ft | 20 kts | 179° |
| 2026-05-07 14:10 | -34.83016 | -56.02857 | 84 ft | 16 kts | 180° |
| 2026-05-07 14:10 | -34.83114 | -56.02857 | 86 ft | 11 kts | 180° |
| 2026-05-07 14:11 | -34.83174 | -56.02856 | 89 ft | 6 kts | 179° |
| 2026-05-07 14:11 | -34.83232 | -56.02854 | 93 ft | 10 kts | 178° |
| 2026-05-07 14:11 | -34.83320 | -56.02853 | 92 ft | 15 kts | 179° |
| 2026-05-07 14:11 | -34.83439 | -56.02852 | 95 ft | 17 kts | 180° |
| 2026-05-07 14:12 | -34.83552 | -56.02851 | 91 ft | 15 kts | 179° |
| 2026-05-07 14:12 | -34.83636 | -56.02850 | 91 ft | 9 kts | 180° |
| 2026-05-07 14:12 | -34.83705 | -56.02849 | 89 ft | 11 kts | 180° |
| 2026-05-07 14:12 | -34.83788 | -56.02850 | 87 ft | 13 kts | 180° |
| 2026-05-07 14:13 | -34.83888 | -56.02836 | 63 ft | 15 kts | 159° |
| 2026-05-07 14:13 | -34.83967 | -56.02780 | 56 ft | 10 kts | 141° |
| 2026-05-07 14:13 | -34.83974 | -56.02727 | 61 ft | 5 kts | 68° |
| 2026-05-07 14:13 | -34.83961 | -56.02689 | 56 ft | 5 kts | 68° |
| 2026-05-07 14:14 | -34.83948 | -56.02636 | 58 ft | 7 kts | 81° |
| 2026-05-07 14:14 | -34.83946 | -56.02565 | 65 ft | 9 kts | 88° |
| 2026-05-07 14:14 | -34.83944 | -56.02484 | 65 ft | 9 kts | 91° |
| 2026-05-07 14:14 | -34.83947 | -56.02406 | 65 ft | 7 kts | 91° |
| 2026-05-07 14:15 | -34.83938 | -56.02385 | 65 ft | 2 kts | 38° |
| 2026-05-07 14:15 | -34.83909 | -56.02382 | 57 ft | 5 kts | 1° |
| 2026-05-07 14:15 | -34.83885 | -56.02380 | 57 ft | 2 kts | 4° |
| 2026-05-07 14:15 | -34.83881 | -56.02380 | 59 ft | 0 kts | 0° |